<?xml version="1.0" encoding="UTF-8" standalone="no" ?>
<gpx xmlns="http://www.topografix.com/GPX/1/1" xmlns:xsi="http://www.w3.org/2001/XMLSchema-instance" xsi:schemaLocation="http://www.topografix.com/GPX/1/1 http://www.topografix.com/GPX/1/1/gpx.xsd" version="1.1" creator="VisuGPX - https://www.visugpx.com">
  <metadata>
    <name>Activité Randonnée TwoNav</name>
    <desc><![CDATA[2022-06-22_172517.trk]]></desc>
  </metadata>
  <trk>
    <name><![CDATA[Activité Randonnée TwoNav_1]]></name>
    <trkseg>
      <trkpt lat="49.17174" lon="7.4116">
        <ele>282.1</ele>
        <time>2022-06-22T15:25:17Z</time>
      </trkpt>
      <trkpt lat="49.17177" lon="7.41149">
        <ele>282.2</ele>
        <time>2022-06-22T15:25:18Z</time>
      </trkpt>
      <trkpt lat="49.1718" lon="7.4114">
        <ele>282.4</ele>
        <time>2022-06-22T15:25:27Z</time>
      </trkpt>
      <trkpt lat="49.17184" lon="7.41131">
        <ele>282.7</ele>
        <time>2022-06-22T15:25:36Z</time>
      </trkpt>
      <trkpt lat="49.17187" lon="7.41122">
        <ele>283.1</ele>
        <time>2022-06-22T15:25:45Z</time>
      </trkpt>
      <trkpt lat="49.1719" lon="7.41113">
        <ele>283.6</ele>
        <time>2022-06-22T15:25:54Z</time>
      </trkpt>
      <trkpt lat="49.17194" lon="7.41104">
        <ele>284.1</ele>
        <time>2022-06-22T15:26:02Z</time>
      </trkpt>
      <trkpt lat="49.17197" lon="7.41095">
        <ele>284.7</ele>
        <time>2022-06-22T15:26:02Z</time>
      </trkpt>
      <trkpt lat="49.17199" lon="7.4108">
        <ele>285.8</ele>
        <time>2022-06-22T15:26:10Z</time>
      </trkpt>
      <trkpt lat="49.17202" lon="7.41066">
        <ele>287.1</ele>
        <time>2022-06-22T15:26:18Z</time>
      </trkpt>
      <trkpt lat="49.17206" lon="7.41054">
        <ele>288.2</ele>
        <time>2022-06-22T15:26:27Z</time>
      </trkpt>
      <trkpt lat="49.17216" lon="7.41054">
        <ele>288.7</ele>
        <time>2022-06-22T15:26:35Z</time>
      </trkpt>
      <trkpt lat="49.17225" lon="7.41058">
        <ele>289.3</ele>
        <time>2022-06-22T15:26:43Z</time>
      </trkpt>
      <trkpt lat="49.17233" lon="7.41066">
        <ele>289.9</ele>
        <time>2022-06-22T15:26:51Z</time>
      </trkpt>
      <trkpt lat="49.17237" lon="7.41079">
        <ele>290.6</ele>
        <time>2022-06-22T15:26:59Z</time>
      </trkpt>
      <trkpt lat="49.17241" lon="7.41094">
        <ele>291.4</ele>
        <time>2022-06-22T15:27:07Z</time>
      </trkpt>
      <trkpt lat="49.17244" lon="7.41107">
        <ele>292.1</ele>
        <time>2022-06-22T15:27:14Z</time>
      </trkpt>
      <trkpt lat="49.17247" lon="7.41121">
        <ele>292.6</ele>
        <time>2022-06-22T15:27:22Z</time>
      </trkpt>
      <trkpt lat="49.1725" lon="7.41135">
        <ele>293.1</ele>
        <time>2022-06-22T15:27:30Z</time>
      </trkpt>
      <trkpt lat="49.17253" lon="7.41148">
        <ele>293.6</ele>
        <time>2022-06-22T15:27:38Z</time>
      </trkpt>
      <trkpt lat="49.17257" lon="7.41162">
        <ele>294</ele>
        <time>2022-06-22T15:27:46Z</time>
      </trkpt>
      <trkpt lat="49.17261" lon="7.41175">
        <ele>294.5</ele>
        <time>2022-06-22T15:27:54Z</time>
      </trkpt>
      <trkpt lat="49.17265" lon="7.41187">
        <ele>295.2</ele>
        <time>2022-06-22T15:28:01Z</time>
      </trkpt>
      <trkpt lat="49.17271" lon="7.41198">
        <ele>296</ele>
        <time>2022-06-22T15:28:09Z</time>
      </trkpt>
      <trkpt lat="49.17276" lon="7.41211">
        <ele>296.8</ele>
        <time>2022-06-22T15:28:17Z</time>
      </trkpt>
      <trkpt lat="49.17283" lon="7.41221">
        <ele>297.6</ele>
        <time>2022-06-22T15:28:26Z</time>
      </trkpt>
      <trkpt lat="49.17289" lon="7.41232">
        <ele>298.4</ele>
        <time>2022-06-22T15:28:33Z</time>
      </trkpt>
      <trkpt lat="49.17296" lon="7.41242">
        <ele>299.2</ele>
        <time>2022-06-22T15:28:41Z</time>
      </trkpt>
      <trkpt lat="49.17305" lon="7.41252">
        <ele>300.1</ele>
        <time>2022-06-22T15:28:49Z</time>
      </trkpt>
      <trkpt lat="49.17313" lon="7.41259">
        <ele>300.9</ele>
        <time>2022-06-22T15:28:56Z</time>
      </trkpt>
      <trkpt lat="49.17323" lon="7.41263">
        <ele>301.7</ele>
        <time>2022-06-22T15:29:03Z</time>
      </trkpt>
      <trkpt lat="49.17333" lon="7.41264">
        <ele>302.5</ele>
        <time>2022-06-22T15:29:11Z</time>
      </trkpt>
      <trkpt lat="49.17343" lon="7.41265">
        <ele>303.3</ele>
        <time>2022-06-22T15:29:20Z</time>
      </trkpt>
      <trkpt lat="49.17352" lon="7.41269">
        <ele>304.1</ele>
        <time>2022-06-22T15:29:28Z</time>
      </trkpt>
      <trkpt lat="49.17361" lon="7.41272">
        <ele>304.9</ele>
        <time>2022-06-22T15:29:37Z</time>
      </trkpt>
      <trkpt lat="49.17371" lon="7.41273">
        <ele>305.8</ele>
        <time>2022-06-22T15:29:45Z</time>
      </trkpt>
      <trkpt lat="49.17381" lon="7.41274">
        <ele>306.6</ele>
        <time>2022-06-22T15:29:53Z</time>
      </trkpt>
      <trkpt lat="49.17391" lon="7.41275">
        <ele>307.4</ele>
        <time>2022-06-22T15:30:01Z</time>
      </trkpt>
      <trkpt lat="49.174" lon="7.41275">
        <ele>308.2</ele>
        <time>2022-06-22T15:30:09Z</time>
      </trkpt>
      <trkpt lat="49.17409" lon="7.41276">
        <ele>308.9</ele>
        <time>2022-06-22T15:30:17Z</time>
      </trkpt>
      <trkpt lat="49.17419" lon="7.41276">
        <ele>309.8</ele>
        <time>2022-06-22T15:30:25Z</time>
      </trkpt>
      <trkpt lat="49.17429" lon="7.41275">
        <ele>310.6</ele>
        <time>2022-06-22T15:30:33Z</time>
      </trkpt>
      <trkpt lat="49.1743" lon="7.41275">
        <ele>310.6</ele>
        <time>2022-06-22T15:30:37Z</time>
      </trkpt>
      <trkpt lat="49.1743" lon="7.41275">
        <ele>310.7</ele>
        <time>2022-06-22T15:30:41Z</time>
      </trkpt>
      <trkpt lat="49.17431" lon="7.41275">
        <ele>310.8</ele>
        <time>2022-06-22T15:30:45Z</time>
      </trkpt>
      <trkpt lat="49.17432" lon="7.41275">
        <ele>310.8</ele>
        <time>2022-06-22T15:30:50Z</time>
      </trkpt>
      <trkpt lat="49.17432" lon="7.41275">
        <ele>310.8</ele>
        <time>2022-06-22T15:30:52Z</time>
      </trkpt>
      <trkpt lat="49.17433" lon="7.41275">
        <ele>310.9</ele>
        <time>2022-06-22T15:30:53Z</time>
      </trkpt>
      <trkpt lat="49.17442" lon="7.41274">
        <ele>311.7</ele>
        <time>2022-06-22T15:31:01Z</time>
      </trkpt>
      <trkpt lat="49.17452" lon="7.41271">
        <ele>312.5</ele>
        <time>2022-06-22T15:31:10Z</time>
      </trkpt>
      <trkpt lat="49.17461" lon="7.41268">
        <ele>313.3</ele>
        <time>2022-06-22T15:31:18Z</time>
      </trkpt>
      <trkpt lat="49.17471" lon="7.41265">
        <ele>314.1</ele>
        <time>2022-06-22T15:31:27Z</time>
      </trkpt>
      <trkpt lat="49.1748" lon="7.41261">
        <ele>314.9</ele>
        <time>2022-06-22T15:31:37Z</time>
      </trkpt>
      <trkpt lat="49.17489" lon="7.41258">
        <ele>315.7</ele>
        <time>2022-06-22T15:31:51Z</time>
      </trkpt>
      <trkpt lat="49.17498" lon="7.41254">
        <ele>316.4</ele>
        <time>2022-06-22T15:32:00Z</time>
      </trkpt>
      <trkpt lat="49.17508" lon="7.4125">
        <ele>317.3</ele>
        <time>2022-06-22T15:32:09Z</time>
      </trkpt>
      <trkpt lat="49.17516" lon="7.41247">
        <ele>317.9</ele>
        <time>2022-06-22T15:32:19Z</time>
      </trkpt>
      <trkpt lat="49.17516" lon="7.41247">
        <ele>318</ele>
        <time>2022-06-22T15:32:29Z</time>
      </trkpt>
      <trkpt lat="49.17516" lon="7.41247">
        <ele>318</ele>
        <time>2022-06-22T15:32:30Z</time>
      </trkpt>
      <trkpt lat="49.17516" lon="7.41247">
        <ele>318</ele>
        <time>2022-06-22T15:32:36Z</time>
      </trkpt>
      <trkpt lat="49.17526" lon="7.41243">
        <ele>318.8</ele>
        <time>2022-06-22T15:32:46Z</time>
      </trkpt>
      <trkpt lat="49.17535" lon="7.4124">
        <ele>319.6</ele>
        <time>2022-06-22T15:32:55Z</time>
      </trkpt>
      <trkpt lat="49.17544" lon="7.41236">
        <ele>320.4</ele>
        <time>2022-06-22T15:33:04Z</time>
      </trkpt>
      <trkpt lat="49.17553" lon="7.41231">
        <ele>321.2</ele>
        <time>2022-06-22T15:33:13Z</time>
      </trkpt>
      <trkpt lat="49.17562" lon="7.41226">
        <ele>321.9</ele>
        <time>2022-06-22T15:33:22Z</time>
      </trkpt>
      <trkpt lat="49.1757" lon="7.4122">
        <ele>322.7</ele>
        <time>2022-06-22T15:33:31Z</time>
      </trkpt>
      <trkpt lat="49.17577" lon="7.4121">
        <ele>323.5</ele>
        <time>2022-06-22T15:33:40Z</time>
      </trkpt>
      <trkpt lat="49.17584" lon="7.412">
        <ele>324.3</ele>
        <time>2022-06-22T15:33:50Z</time>
      </trkpt>
      <trkpt lat="49.1759" lon="7.41188">
        <ele>325.1</ele>
        <time>2022-06-22T15:33:59Z</time>
      </trkpt>
      <trkpt lat="49.17597" lon="7.41176">
        <ele>326</ele>
        <time>2022-06-22T15:34:08Z</time>
      </trkpt>
      <trkpt lat="49.17602" lon="7.41165">
        <ele>326.7</ele>
        <time>2022-06-22T15:34:17Z</time>
      </trkpt>
      <trkpt lat="49.17606" lon="7.41157">
        <ele>327.2</ele>
        <time>2022-06-22T15:34:25Z</time>
      </trkpt>
      <trkpt lat="49.17606" lon="7.41158">
        <ele>327.2</ele>
        <time>2022-06-22T15:34:32Z</time>
      </trkpt>
      <trkpt lat="49.17606" lon="7.41158">
        <ele>327.2</ele>
        <time>2022-06-22T15:34:33Z</time>
      </trkpt>
      <trkpt lat="49.17606" lon="7.41157">
        <ele>327.3</ele>
        <time>2022-06-22T15:34:35Z</time>
      </trkpt>
      <trkpt lat="49.17606" lon="7.41157">
        <ele>327.3</ele>
        <time>2022-06-22T15:34:37Z</time>
      </trkpt>
      <trkpt lat="49.17607" lon="7.41157">
        <ele>327.3</ele>
        <time>2022-06-22T15:34:57Z</time>
      </trkpt>
      <trkpt lat="49.17611" lon="7.41144">
        <ele>328.1</ele>
        <time>2022-06-22T15:35:05Z</time>
      </trkpt>
      <trkpt lat="49.17617" lon="7.41132">
        <ele>328.9</ele>
        <time>2022-06-22T15:35:13Z</time>
      </trkpt>
      <trkpt lat="49.17623" lon="7.41122">
        <ele>329.7</ele>
        <time>2022-06-22T15:35:21Z</time>
      </trkpt>
      <trkpt lat="49.17631" lon="7.41113">
        <ele>330.5</ele>
        <time>2022-06-22T15:35:29Z</time>
      </trkpt>
      <trkpt lat="49.17639" lon="7.41105">
        <ele>331.3</ele>
        <time>2022-06-22T15:35:37Z</time>
      </trkpt>
      <trkpt lat="49.17647" lon="7.41097">
        <ele>332.1</ele>
        <time>2022-06-22T15:35:45Z</time>
      </trkpt>
      <trkpt lat="49.17657" lon="7.41092">
        <ele>332.9</ele>
        <time>2022-06-22T15:35:53Z</time>
      </trkpt>
      <trkpt lat="49.17665" lon="7.41085">
        <ele>333.7</ele>
        <time>2022-06-22T15:36:01Z</time>
      </trkpt>
      <trkpt lat="49.17675" lon="7.4108">
        <ele>334.6</ele>
        <time>2022-06-22T15:36:10Z</time>
      </trkpt>
      <trkpt lat="49.17683" lon="7.41075">
        <ele>335.3</ele>
        <time>2022-06-22T15:36:18Z</time>
      </trkpt>
      <trkpt lat="49.17692" lon="7.41071">
        <ele>336.1</ele>
        <time>2022-06-22T15:36:26Z</time>
      </trkpt>
      <trkpt lat="49.17701" lon="7.41067">
        <ele>336.9</ele>
        <time>2022-06-22T15:36:34Z</time>
      </trkpt>
      <trkpt lat="49.17711" lon="7.41063">
        <ele>337.7</ele>
        <time>2022-06-22T15:36:43Z</time>
      </trkpt>
      <trkpt lat="49.1772" lon="7.41058">
        <ele>338.5</ele>
        <time>2022-06-22T15:36:52Z</time>
      </trkpt>
      <trkpt lat="49.17729" lon="7.41054">
        <ele>339.3</ele>
        <time>2022-06-22T15:37:00Z</time>
      </trkpt>
      <trkpt lat="49.17739" lon="7.41051">
        <ele>340.1</ele>
        <time>2022-06-22T15:37:08Z</time>
      </trkpt>
      <trkpt lat="49.17748" lon="7.41046">
        <ele>341</ele>
        <time>2022-06-22T15:37:16Z</time>
      </trkpt>
      <trkpt lat="49.17758" lon="7.41045">
        <ele>341.8</ele>
        <time>2022-06-22T15:37:24Z</time>
      </trkpt>
      <trkpt lat="49.17768" lon="7.41044">
        <ele>341.9</ele>
        <time>2022-06-22T15:37:32Z</time>
      </trkpt>
      <trkpt lat="49.17777" lon="7.41044">
        <ele>341.9</ele>
        <time>2022-06-22T15:37:41Z</time>
      </trkpt>
      <trkpt lat="49.17786" lon="7.41046">
        <ele>342</ele>
        <time>2022-06-22T15:37:51Z</time>
      </trkpt>
      <trkpt lat="49.17786" lon="7.41046">
        <ele>342</ele>
        <time>2022-06-22T15:38:17Z</time>
      </trkpt>
      <trkpt lat="49.1779" lon="7.41045">
        <ele>342</ele>
        <time>2022-06-22T15:38:25Z</time>
      </trkpt>
      <trkpt lat="49.1779" lon="7.41045">
        <ele>342</ele>
        <time>2022-06-22T15:38:38Z</time>
      </trkpt>
      <trkpt lat="49.178" lon="7.41044">
        <ele>342</ele>
        <time>2022-06-22T15:38:48Z</time>
      </trkpt>
      <trkpt lat="49.1781" lon="7.41046">
        <ele>342.1</ele>
        <time>2022-06-22T15:38:56Z</time>
      </trkpt>
      <trkpt lat="49.17819" lon="7.41047">
        <ele>342.1</ele>
        <time>2022-06-22T15:39:04Z</time>
      </trkpt>
      <trkpt lat="49.17829" lon="7.41046">
        <ele>342.2</ele>
        <time>2022-06-22T15:39:12Z</time>
      </trkpt>
      <trkpt lat="49.17835" lon="7.41045">
        <ele>342.1</ele>
        <time>2022-06-22T15:39:19Z</time>
      </trkpt>
      <trkpt lat="49.17835" lon="7.41045">
        <ele>342.1</ele>
        <time>2022-06-22T15:39:21Z</time>
      </trkpt>
      <trkpt lat="49.17839" lon="7.41058">
        <ele>342</ele>
        <time>2022-06-22T15:39:31Z</time>
      </trkpt>
      <trkpt lat="49.17843" lon="7.41071">
        <ele>342</ele>
        <time>2022-06-22T15:39:40Z</time>
      </trkpt>
      <trkpt lat="49.17848" lon="7.41083">
        <ele>342</ele>
        <time>2022-06-22T15:39:48Z</time>
      </trkpt>
      <trkpt lat="49.17853" lon="7.41096">
        <ele>341.9</ele>
        <time>2022-06-22T15:39:56Z</time>
      </trkpt>
      <trkpt lat="49.17859" lon="7.41107">
        <ele>341.8</ele>
        <time>2022-06-22T15:40:04Z</time>
      </trkpt>
      <trkpt lat="49.17864" lon="7.41119">
        <ele>341.8</ele>
        <time>2022-06-22T15:40:12Z</time>
      </trkpt>
      <trkpt lat="49.17869" lon="7.41131">
        <ele>341.8</ele>
        <time>2022-06-22T15:40:20Z</time>
      </trkpt>
      <trkpt lat="49.17874" lon="7.41143">
        <ele>341.7</ele>
        <time>2022-06-22T15:40:28Z</time>
      </trkpt>
      <trkpt lat="49.17879" lon="7.41154">
        <ele>341.7</ele>
        <time>2022-06-22T15:40:36Z</time>
      </trkpt>
      <trkpt lat="49.17885" lon="7.41167">
        <ele>341.7</ele>
        <time>2022-06-22T15:40:44Z</time>
      </trkpt>
      <trkpt lat="49.1789" lon="7.41178">
        <ele>341.7</ele>
        <time>2022-06-22T15:40:52Z</time>
      </trkpt>
      <trkpt lat="49.17895" lon="7.4119">
        <ele>341.8</ele>
        <time>2022-06-22T15:41:00Z</time>
      </trkpt>
      <trkpt lat="49.179" lon="7.41202">
        <ele>341.8</ele>
        <time>2022-06-22T15:41:08Z</time>
      </trkpt>
      <trkpt lat="49.17905" lon="7.41213">
        <ele>341.9</ele>
        <time>2022-06-22T15:41:16Z</time>
      </trkpt>
      <trkpt lat="49.1791" lon="7.41225">
        <ele>342</ele>
        <time>2022-06-22T15:41:24Z</time>
      </trkpt>
      <trkpt lat="49.17915" lon="7.41236">
        <ele>342.1</ele>
        <time>2022-06-22T15:41:32Z</time>
      </trkpt>
      <trkpt lat="49.17921" lon="7.41248">
        <ele>342.2</ele>
        <time>2022-06-22T15:41:40Z</time>
      </trkpt>
      <trkpt lat="49.17926" lon="7.4126">
        <ele>342.3</ele>
        <time>2022-06-22T15:41:48Z</time>
      </trkpt>
      <trkpt lat="49.17931" lon="7.41271">
        <ele>342.4</ele>
        <time>2022-06-22T15:41:56Z</time>
      </trkpt>
      <trkpt lat="49.17936" lon="7.41284">
        <ele>342.5</ele>
        <time>2022-06-22T15:42:05Z</time>
      </trkpt>
      <trkpt lat="49.17941" lon="7.41296">
        <ele>342.5</ele>
        <time>2022-06-22T15:42:13Z</time>
      </trkpt>
      <trkpt lat="49.17946" lon="7.41307">
        <ele>342.6</ele>
        <time>2022-06-22T15:42:21Z</time>
      </trkpt>
      <trkpt lat="49.17952" lon="7.41318">
        <ele>342.6</ele>
        <time>2022-06-22T15:42:29Z</time>
      </trkpt>
      <trkpt lat="49.17957" lon="7.41331">
        <ele>342.6</ele>
        <time>2022-06-22T15:42:39Z</time>
      </trkpt>
      <trkpt lat="49.17962" lon="7.41343">
        <ele>342.6</ele>
        <time>2022-06-22T15:42:48Z</time>
      </trkpt>
      <trkpt lat="49.17968" lon="7.41353">
        <ele>342.6</ele>
        <time>2022-06-22T15:42:56Z</time>
      </trkpt>
      <trkpt lat="49.17974" lon="7.41365">
        <ele>342.6</ele>
        <time>2022-06-22T15:43:05Z</time>
      </trkpt>
      <trkpt lat="49.17976" lon="7.41373">
        <ele>342.6</ele>
        <time>2022-06-22T15:43:14Z</time>
      </trkpt>
      <trkpt lat="49.17976" lon="7.41372">
        <ele>342.6</ele>
        <time>2022-06-22T15:43:15Z</time>
      </trkpt>
      <trkpt lat="49.17976" lon="7.41372">
        <ele>342.6</ele>
        <time>2022-06-22T15:43:19Z</time>
      </trkpt>
      <trkpt lat="49.17977" lon="7.41372">
        <ele>342.6</ele>
        <time>2022-06-22T15:43:29Z</time>
      </trkpt>
      <trkpt lat="49.17986" lon="7.41369">
        <ele>342.7</ele>
        <time>2022-06-22T15:43:46Z</time>
      </trkpt>
      <trkpt lat="49.17986" lon="7.41367">
        <ele>342.7</ele>
        <time>2022-06-22T15:43:50Z</time>
      </trkpt>
      <trkpt lat="49.17986" lon="7.41367">
        <ele>342.7</ele>
        <time>2022-06-22T15:44:29Z</time>
      </trkpt>
      <trkpt lat="49.17986" lon="7.41367">
        <ele>342.7</ele>
        <time>2022-06-22T15:44:30Z</time>
      </trkpt>
      <trkpt lat="49.17986" lon="7.41366">
        <ele>342.7</ele>
        <time>2022-06-22T15:45:41Z</time>
      </trkpt>
      <trkpt lat="49.17986" lon="7.41366">
        <ele>342.7</ele>
        <time>2022-06-22T15:45:42Z</time>
      </trkpt>
      <trkpt lat="49.17986" lon="7.41366">
        <ele>342.7</ele>
        <time>2022-06-22T15:46:12Z</time>
      </trkpt>
      <trkpt lat="49.17986" lon="7.41366">
        <ele>342.7</ele>
        <time>2022-06-22T15:46:13Z</time>
      </trkpt>
      <trkpt lat="49.17985" lon="7.41366">
        <ele>342.7</ele>
        <time>2022-06-22T15:47:37Z</time>
      </trkpt>
      <trkpt lat="49.17985" lon="7.41366">
        <ele>342.7</ele>
        <time>2022-06-22T15:47:38Z</time>
      </trkpt>
      <trkpt lat="49.17985" lon="7.41366">
        <ele>342.7</ele>
        <time>2022-06-22T15:48:58Z</time>
      </trkpt>
      <trkpt lat="49.17985" lon="7.41366">
        <ele>342.7</ele>
        <time>2022-06-22T15:48:59Z</time>
      </trkpt>
      <trkpt lat="49.17985" lon="7.41366">
        <ele>342.7</ele>
        <time>2022-06-22T15:50:46Z</time>
      </trkpt>
      <trkpt lat="49.17985" lon="7.41366">
        <ele>342.7</ele>
        <time>2022-06-22T15:50:47Z</time>
      </trkpt>
      <trkpt lat="49.17985" lon="7.41366">
        <ele>342.7</ele>
        <time>2022-06-22T15:51:23Z</time>
      </trkpt>
      <trkpt lat="49.17981" lon="7.41379">
        <ele>342.8</ele>
        <time>2022-06-22T15:51:33Z</time>
      </trkpt>
      <trkpt lat="49.17981" lon="7.41386">
        <ele>342.8</ele>
        <time>2022-06-22T15:51:39Z</time>
      </trkpt>
      <trkpt lat="49.17981" lon="7.41386">
        <ele>342.8</ele>
        <time>2022-06-22T15:51:40Z</time>
      </trkpt>
      <trkpt lat="49.17986" lon="7.414">
        <ele>342.9</ele>
        <time>2022-06-22T15:51:48Z</time>
      </trkpt>
      <trkpt lat="49.1799" lon="7.41412">
        <ele>343</ele>
        <time>2022-06-22T15:51:57Z</time>
      </trkpt>
      <trkpt lat="49.17995" lon="7.41424">
        <ele>342.9</ele>
        <time>2022-06-22T15:52:05Z</time>
      </trkpt>
      <trkpt lat="49.18" lon="7.41437">
        <ele>342.9</ele>
        <time>2022-06-22T15:52:14Z</time>
      </trkpt>
      <trkpt lat="49.18005" lon="7.41449">
        <ele>342.8</ele>
        <time>2022-06-22T15:52:23Z</time>
      </trkpt>
      <trkpt lat="49.1801" lon="7.41463">
        <ele>342.8</ele>
        <time>2022-06-22T15:52:32Z</time>
      </trkpt>
      <trkpt lat="49.18015" lon="7.41474">
        <ele>342.8</ele>
        <time>2022-06-22T15:52:40Z</time>
      </trkpt>
      <trkpt lat="49.1802" lon="7.41487">
        <ele>342.8</ele>
        <time>2022-06-22T15:52:49Z</time>
      </trkpt>
      <trkpt lat="49.18026" lon="7.415">
        <ele>342.7</ele>
        <time>2022-06-22T15:52:58Z</time>
      </trkpt>
      <trkpt lat="49.18031" lon="7.41512">
        <ele>342.7</ele>
        <time>2022-06-22T15:53:07Z</time>
      </trkpt>
      <trkpt lat="49.18037" lon="7.41524">
        <ele>342.5</ele>
        <time>2022-06-22T15:53:16Z</time>
      </trkpt>
      <trkpt lat="49.18042" lon="7.41536">
        <ele>342.4</ele>
        <time>2022-06-22T15:53:24Z</time>
      </trkpt>
      <trkpt lat="49.18047" lon="7.41547">
        <ele>342.3</ele>
        <time>2022-06-22T15:53:32Z</time>
      </trkpt>
      <trkpt lat="49.18052" lon="7.4156">
        <ele>342.2</ele>
        <time>2022-06-22T15:53:41Z</time>
      </trkpt>
      <trkpt lat="49.18058" lon="7.41573">
        <ele>342.1</ele>
        <time>2022-06-22T15:53:50Z</time>
      </trkpt>
      <trkpt lat="49.18063" lon="7.41586">
        <ele>342</ele>
        <time>2022-06-22T15:53:59Z</time>
      </trkpt>
      <trkpt lat="49.18068" lon="7.41598">
        <ele>341.9</ele>
        <time>2022-06-22T15:54:07Z</time>
      </trkpt>
      <trkpt lat="49.18074" lon="7.41609">
        <ele>341.8</ele>
        <time>2022-06-22T15:54:15Z</time>
      </trkpt>
      <trkpt lat="49.18079" lon="7.41622">
        <ele>341.7</ele>
        <time>2022-06-22T15:54:24Z</time>
      </trkpt>
      <trkpt lat="49.18084" lon="7.41635">
        <ele>341.6</ele>
        <time>2022-06-22T15:54:33Z</time>
      </trkpt>
      <trkpt lat="49.18089" lon="7.41648">
        <ele>341.6</ele>
        <time>2022-06-22T15:54:42Z</time>
      </trkpt>
      <trkpt lat="49.18095" lon="7.4166">
        <ele>341.5</ele>
        <time>2022-06-22T15:54:51Z</time>
      </trkpt>
      <trkpt lat="49.181" lon="7.41673">
        <ele>341.5</ele>
        <time>2022-06-22T15:55:00Z</time>
      </trkpt>
      <trkpt lat="49.18106" lon="7.41686">
        <ele>341.5</ele>
        <time>2022-06-22T15:55:09Z</time>
      </trkpt>
      <trkpt lat="49.18111" lon="7.41698">
        <ele>341.5</ele>
        <time>2022-06-22T15:55:18Z</time>
      </trkpt>
      <trkpt lat="49.18116" lon="7.41711">
        <ele>341.4</ele>
        <time>2022-06-22T15:55:27Z</time>
      </trkpt>
      <trkpt lat="49.18121" lon="7.41724">
        <ele>341.3</ele>
        <time>2022-06-22T15:55:36Z</time>
      </trkpt>
      <trkpt lat="49.18127" lon="7.41737">
        <ele>341.2</ele>
        <time>2022-06-22T15:55:45Z</time>
      </trkpt>
      <trkpt lat="49.18133" lon="7.41749">
        <ele>341.1</ele>
        <time>2022-06-22T15:55:54Z</time>
      </trkpt>
      <trkpt lat="49.18138" lon="7.41762">
        <ele>341.2</ele>
        <time>2022-06-22T15:56:03Z</time>
      </trkpt>
      <trkpt lat="49.18144" lon="7.41775">
        <ele>341.2</ele>
        <time>2022-06-22T15:56:12Z</time>
      </trkpt>
      <trkpt lat="49.18149" lon="7.41787">
        <ele>341.2</ele>
        <time>2022-06-22T15:56:21Z</time>
      </trkpt>
      <trkpt lat="49.18154" lon="7.41799">
        <ele>341.2</ele>
        <time>2022-06-22T15:56:30Z</time>
      </trkpt>
      <trkpt lat="49.18159" lon="7.41812">
        <ele>341.2</ele>
        <time>2022-06-22T15:56:39Z</time>
      </trkpt>
      <trkpt lat="49.18164" lon="7.41825">
        <ele>341.2</ele>
        <time>2022-06-22T15:56:48Z</time>
      </trkpt>
      <trkpt lat="49.1817" lon="7.41836">
        <ele>341.2</ele>
        <time>2022-06-22T15:56:59Z</time>
      </trkpt>
      <trkpt lat="49.1817" lon="7.41837">
        <ele>341.2</ele>
        <time>2022-06-22T15:57:03Z</time>
      </trkpt>
      <trkpt lat="49.1817" lon="7.41837">
        <ele>341.2</ele>
        <time>2022-06-22T15:57:12Z</time>
      </trkpt>
      <trkpt lat="49.18175" lon="7.41849">
        <ele>341.1</ele>
        <time>2022-06-22T15:57:21Z</time>
      </trkpt>
      <trkpt lat="49.18179" lon="7.41861">
        <ele>341.1</ele>
        <time>2022-06-22T15:57:30Z</time>
      </trkpt>
      <trkpt lat="49.18185" lon="7.41874">
        <ele>341.1</ele>
        <time>2022-06-22T15:57:39Z</time>
      </trkpt>
      <trkpt lat="49.1819" lon="7.41886">
        <ele>341.1</ele>
        <time>2022-06-22T15:57:48Z</time>
      </trkpt>
      <trkpt lat="49.18196" lon="7.41899">
        <ele>341.1</ele>
        <time>2022-06-22T15:57:57Z</time>
      </trkpt>
      <trkpt lat="49.18196" lon="7.41898">
        <ele>341.1</ele>
        <time>2022-06-22T15:57:59Z</time>
      </trkpt>
      <trkpt lat="49.18196" lon="7.41899">
        <ele>341.1</ele>
        <time>2022-06-22T15:58:00Z</time>
      </trkpt>
      <trkpt lat="49.18201" lon="7.4191">
        <ele>341.2</ele>
        <time>2022-06-22T15:58:07Z</time>
      </trkpt>
      <trkpt lat="49.18206" lon="7.41922">
        <ele>341.2</ele>
        <time>2022-06-22T15:58:14Z</time>
      </trkpt>
      <trkpt lat="49.18211" lon="7.41934">
        <ele>341.2</ele>
        <time>2022-06-22T15:58:22Z</time>
      </trkpt>
      <trkpt lat="49.18216" lon="7.41947">
        <ele>341.3</ele>
        <time>2022-06-22T15:58:31Z</time>
      </trkpt>
      <trkpt lat="49.18221" lon="7.4196">
        <ele>341.3</ele>
        <time>2022-06-22T15:58:40Z</time>
      </trkpt>
      <trkpt lat="49.18226" lon="7.41972">
        <ele>341.3</ele>
        <time>2022-06-22T15:58:48Z</time>
      </trkpt>
      <trkpt lat="49.18229" lon="7.41979">
        <ele>341.3</ele>
        <time>2022-06-22T15:58:56Z</time>
      </trkpt>
      <trkpt lat="49.18229" lon="7.4198">
        <ele>341.3</ele>
        <time>2022-06-22T15:58:57Z</time>
      </trkpt>
      <trkpt lat="49.18231" lon="7.41984">
        <ele>341.3</ele>
        <time>2022-06-22T15:59:02Z</time>
      </trkpt>
      <trkpt lat="49.18231" lon="7.41985">
        <ele>341.3</ele>
        <time>2022-06-22T15:59:03Z</time>
      </trkpt>
      <trkpt lat="49.18236" lon="7.41997">
        <ele>341.3</ele>
        <time>2022-06-22T15:59:11Z</time>
      </trkpt>
      <trkpt lat="49.18241" lon="7.42009">
        <ele>341.3</ele>
        <time>2022-06-22T15:59:19Z</time>
      </trkpt>
      <trkpt lat="49.18247" lon="7.42022">
        <ele>341.3</ele>
        <time>2022-06-22T15:59:27Z</time>
      </trkpt>
      <trkpt lat="49.18252" lon="7.42034">
        <ele>341.4</ele>
        <time>2022-06-22T15:59:35Z</time>
      </trkpt>
      <trkpt lat="49.18257" lon="7.42045">
        <ele>341.4</ele>
        <time>2022-06-22T15:59:43Z</time>
      </trkpt>
      <trkpt lat="49.18262" lon="7.42057">
        <ele>341.4</ele>
        <time>2022-06-22T15:59:52Z</time>
      </trkpt>
      <trkpt lat="49.18268" lon="7.42069">
        <ele>341.5</ele>
        <time>2022-06-22T16:00:01Z</time>
      </trkpt>
      <trkpt lat="49.18274" lon="7.4208">
        <ele>341.4</ele>
        <time>2022-06-22T16:00:10Z</time>
      </trkpt>
      <trkpt lat="49.18281" lon="7.4209">
        <ele>341.4</ele>
        <time>2022-06-22T16:00:18Z</time>
      </trkpt>
      <trkpt lat="49.18287" lon="7.42102">
        <ele>341.3</ele>
        <time>2022-06-22T16:00:27Z</time>
      </trkpt>
      <trkpt lat="49.18293" lon="7.42113">
        <ele>341.2</ele>
        <time>2022-06-22T16:00:36Z</time>
      </trkpt>
      <trkpt lat="49.18298" lon="7.42124">
        <ele>341.1</ele>
        <time>2022-06-22T16:00:45Z</time>
      </trkpt>
      <trkpt lat="49.18305" lon="7.42135">
        <ele>341.1</ele>
        <time>2022-06-22T16:00:54Z</time>
      </trkpt>
      <trkpt lat="49.18311" lon="7.42147">
        <ele>341.1</ele>
        <time>2022-06-22T16:01:03Z</time>
      </trkpt>
      <trkpt lat="49.18317" lon="7.42159">
        <ele>341.1</ele>
        <time>2022-06-22T16:01:12Z</time>
      </trkpt>
      <trkpt lat="49.18323" lon="7.4217">
        <ele>341.2</ele>
        <time>2022-06-22T16:01:21Z</time>
      </trkpt>
      <trkpt lat="49.18329" lon="7.42182">
        <ele>341.2</ele>
        <time>2022-06-22T16:01:30Z</time>
      </trkpt>
      <trkpt lat="49.18335" lon="7.42193">
        <ele>341.2</ele>
        <time>2022-06-22T16:01:39Z</time>
      </trkpt>
      <trkpt lat="49.18341" lon="7.42204">
        <ele>341.1</ele>
        <time>2022-06-22T16:01:48Z</time>
      </trkpt>
      <trkpt lat="49.18348" lon="7.42213">
        <ele>341</ele>
        <time>2022-06-22T16:02:00Z</time>
      </trkpt>
      <trkpt lat="49.18348" lon="7.42213">
        <ele>341</ele>
        <time>2022-06-22T16:02:01Z</time>
      </trkpt>
      <trkpt lat="49.18348" lon="7.42213">
        <ele>341</ele>
        <time>2022-06-22T16:02:09Z</time>
      </trkpt>
      <trkpt lat="49.18348" lon="7.42214">
        <ele>341</ele>
        <time>2022-06-22T16:02:11Z</time>
      </trkpt>
      <trkpt lat="49.18348" lon="7.42214">
        <ele>341</ele>
        <time>2022-06-22T16:02:13Z</time>
      </trkpt>
      <trkpt lat="49.18349" lon="7.42212">
        <ele>341</ele>
        <time>2022-06-22T16:02:18Z</time>
      </trkpt>
      <trkpt lat="49.18349" lon="7.42212">
        <ele>341</ele>
        <time>2022-06-22T16:02:19Z</time>
      </trkpt>
      <trkpt lat="49.18349" lon="7.42212">
        <ele>341</ele>
        <time>2022-06-22T16:02:21Z</time>
      </trkpt>
      <trkpt lat="49.18349" lon="7.42212">
        <ele>340.9</ele>
        <time>2022-06-22T16:02:22Z</time>
      </trkpt>
      <trkpt lat="49.18349" lon="7.42212">
        <ele>340.9</ele>
        <time>2022-06-22T16:02:24Z</time>
      </trkpt>
      <trkpt lat="49.18349" lon="7.42212">
        <ele>340.9</ele>
        <time>2022-06-22T16:02:28Z</time>
      </trkpt>
      <trkpt lat="49.18349" lon="7.42212">
        <ele>340.9</ele>
        <time>2022-06-22T16:02:29Z</time>
      </trkpt>
      <trkpt lat="49.18349" lon="7.42212">
        <ele>340.9</ele>
        <time>2022-06-22T16:03:37Z</time>
      </trkpt>
      <trkpt lat="49.18349" lon="7.42212">
        <ele>340.9</ele>
        <time>2022-06-22T16:03:38Z</time>
      </trkpt>
      <trkpt lat="49.18349" lon="7.42212">
        <ele>340.9</ele>
        <time>2022-06-22T16:04:09Z</time>
      </trkpt>
      <trkpt lat="49.18349" lon="7.42212">
        <ele>340.9</ele>
        <time>2022-06-22T16:04:10Z</time>
      </trkpt>
      <trkpt lat="49.18349" lon="7.42211">
        <ele>340.9</ele>
        <time>2022-06-22T16:13:35Z</time>
      </trkpt>
      <trkpt lat="49.18349" lon="7.42211">
        <ele>340.9</ele>
        <time>2022-06-22T16:13:36Z</time>
      </trkpt>
      <trkpt lat="49.18349" lon="7.42211">
        <ele>340.9</ele>
        <time>2022-06-22T16:13:42Z</time>
      </trkpt>
      <trkpt lat="49.18349" lon="7.42211">
        <ele>340.9</ele>
        <time>2022-06-22T16:13:46Z</time>
      </trkpt>
      <trkpt lat="49.18349" lon="7.42211">
        <ele>340.9</ele>
        <time>2022-06-22T16:13:47Z</time>
      </trkpt>
      <trkpt lat="49.18349" lon="7.42211">
        <ele>340.9</ele>
        <time>2022-06-22T16:13:49Z</time>
      </trkpt>
      <trkpt lat="49.1835" lon="7.42211">
        <ele>340.9</ele>
        <time>2022-06-22T16:23:52Z</time>
      </trkpt>
      <trkpt lat="49.1835" lon="7.42211">
        <ele>340.9</ele>
        <time>2022-06-22T16:23:53Z</time>
      </trkpt>
      <trkpt lat="49.1835" lon="7.42211">
        <ele>340.9</ele>
        <time>2022-06-22T16:25:54Z</time>
      </trkpt>
      <trkpt lat="49.1835" lon="7.42211">
        <ele>340.9</ele>
        <time>2022-06-22T16:25:55Z</time>
      </trkpt>
      <trkpt lat="49.1835" lon="7.4221">
        <ele>340.9</ele>
        <time>2022-06-22T16:40:11Z</time>
      </trkpt>
      <trkpt lat="49.1835" lon="7.4221">
        <ele>340.9</ele>
        <time>2022-06-22T16:40:12Z</time>
      </trkpt>
      <trkpt lat="49.1835" lon="7.42211">
        <ele>340.9</ele>
        <time>2022-06-22T16:41:21Z</time>
      </trkpt>
      <trkpt lat="49.18352" lon="7.42225">
        <ele>340.6</ele>
        <time>2022-06-22T16:41:32Z</time>
      </trkpt>
      <trkpt lat="49.18357" lon="7.42236">
        <ele>340.4</ele>
        <time>2022-06-22T16:41:41Z</time>
      </trkpt>
      <trkpt lat="49.18362" lon="7.4225">
        <ele>340.3</ele>
        <time>2022-06-22T16:41:50Z</time>
      </trkpt>
      <trkpt lat="49.18369" lon="7.42262">
        <ele>340.2</ele>
        <time>2022-06-22T16:41:59Z</time>
      </trkpt>
      <trkpt lat="49.18373" lon="7.42274">
        <ele>340.2</ele>
        <time>2022-06-22T16:42:07Z</time>
      </trkpt>
      <trkpt lat="49.18378" lon="7.42286">
        <ele>340</ele>
        <time>2022-06-22T16:42:15Z</time>
      </trkpt>
      <trkpt lat="49.18384" lon="7.42298">
        <ele>339.8</ele>
        <time>2022-06-22T16:42:23Z</time>
      </trkpt>
      <trkpt lat="49.18389" lon="7.42311">
        <ele>339.6</ele>
        <time>2022-06-22T16:42:31Z</time>
      </trkpt>
      <trkpt lat="49.18393" lon="7.42324">
        <ele>339.4</ele>
        <time>2022-06-22T16:42:39Z</time>
      </trkpt>
      <trkpt lat="49.18398" lon="7.42336">
        <ele>339.2</ele>
        <time>2022-06-22T16:42:47Z</time>
      </trkpt>
      <trkpt lat="49.18403" lon="7.42348">
        <ele>339</ele>
        <time>2022-06-22T16:42:55Z</time>
      </trkpt>
      <trkpt lat="49.18408" lon="7.4236">
        <ele>338.9</ele>
        <time>2022-06-22T16:43:03Z</time>
      </trkpt>
      <trkpt lat="49.18413" lon="7.42371">
        <ele>338.8</ele>
        <time>2022-06-22T16:43:11Z</time>
      </trkpt>
      <trkpt lat="49.18418" lon="7.42385">
        <ele>338.6</ele>
        <time>2022-06-22T16:43:20Z</time>
      </trkpt>
      <trkpt lat="49.18423" lon="7.42397">
        <ele>338.5</ele>
        <time>2022-06-22T16:43:28Z</time>
      </trkpt>
      <trkpt lat="49.18428" lon="7.42408">
        <ele>338.4</ele>
        <time>2022-06-22T16:43:36Z</time>
      </trkpt>
      <trkpt lat="49.18434" lon="7.42421">
        <ele>338.3</ele>
        <time>2022-06-22T16:43:44Z</time>
      </trkpt>
      <trkpt lat="49.18439" lon="7.42432">
        <ele>338.2</ele>
        <time>2022-06-22T16:43:52Z</time>
      </trkpt>
      <trkpt lat="49.18444" lon="7.42445">
        <ele>338</ele>
        <time>2022-06-22T16:44:01Z</time>
      </trkpt>
      <trkpt lat="49.18449" lon="7.42457">
        <ele>337.8</ele>
        <time>2022-06-22T16:44:09Z</time>
      </trkpt>
      <trkpt lat="49.18455" lon="7.4247">
        <ele>337.6</ele>
        <time>2022-06-22T16:44:18Z</time>
      </trkpt>
      <trkpt lat="49.1846" lon="7.42481">
        <ele>337.5</ele>
        <time>2022-06-22T16:44:26Z</time>
      </trkpt>
      <trkpt lat="49.18466" lon="7.42494">
        <ele>337.3</ele>
        <time>2022-06-22T16:44:35Z</time>
      </trkpt>
      <trkpt lat="49.18471" lon="7.42507">
        <ele>337.2</ele>
        <time>2022-06-22T16:44:44Z</time>
      </trkpt>
      <trkpt lat="49.18476" lon="7.42519">
        <ele>337</ele>
        <time>2022-06-22T16:44:53Z</time>
      </trkpt>
      <trkpt lat="49.18481" lon="7.42532">
        <ele>336.7</ele>
        <time>2022-06-22T16:45:02Z</time>
      </trkpt>
      <trkpt lat="49.18486" lon="7.42546">
        <ele>336.4</ele>
        <time>2022-06-22T16:45:11Z</time>
      </trkpt>
      <trkpt lat="49.18491" lon="7.42557">
        <ele>336.1</ele>
        <time>2022-06-22T16:45:19Z</time>
      </trkpt>
      <trkpt lat="49.18496" lon="7.42571">
        <ele>335.8</ele>
        <time>2022-06-22T16:45:28Z</time>
      </trkpt>
      <trkpt lat="49.185" lon="7.42584">
        <ele>335.5</ele>
        <time>2022-06-22T16:45:37Z</time>
      </trkpt>
      <trkpt lat="49.18504" lon="7.42598">
        <ele>335.2</ele>
        <time>2022-06-22T16:45:46Z</time>
      </trkpt>
      <trkpt lat="49.18509" lon="7.42611">
        <ele>334.9</ele>
        <time>2022-06-22T16:45:55Z</time>
      </trkpt>
      <trkpt lat="49.18513" lon="7.42625">
        <ele>334.7</ele>
        <time>2022-06-22T16:46:04Z</time>
      </trkpt>
      <trkpt lat="49.18518" lon="7.42638">
        <ele>334.4</ele>
        <time>2022-06-22T16:46:13Z</time>
      </trkpt>
      <trkpt lat="49.18522" lon="7.42652">
        <ele>334.1</ele>
        <time>2022-06-22T16:46:22Z</time>
      </trkpt>
      <trkpt lat="49.18526" lon="7.42665">
        <ele>333.8</ele>
        <time>2022-06-22T16:46:33Z</time>
      </trkpt>
      <trkpt lat="49.1853" lon="7.42677">
        <ele>333.5</ele>
        <time>2022-06-22T16:46:41Z</time>
      </trkpt>
      <trkpt lat="49.18535" lon="7.4269">
        <ele>333.2</ele>
        <time>2022-06-22T16:46:49Z</time>
      </trkpt>
      <trkpt lat="49.18539" lon="7.42702">
        <ele>332.9</ele>
        <time>2022-06-22T16:46:57Z</time>
      </trkpt>
      <trkpt lat="49.18545" lon="7.42714">
        <ele>332.8</ele>
        <time>2022-06-22T16:47:06Z</time>
      </trkpt>
      <trkpt lat="49.1855" lon="7.42726">
        <ele>332.6</ele>
        <time>2022-06-22T16:47:15Z</time>
      </trkpt>
      <trkpt lat="49.18557" lon="7.42736">
        <ele>332.5</ele>
        <time>2022-06-22T16:47:25Z</time>
      </trkpt>
      <trkpt lat="49.18557" lon="7.42736">
        <ele>332.4</ele>
        <time>2022-06-22T16:47:26Z</time>
      </trkpt>
      <trkpt lat="49.18557" lon="7.42736">
        <ele>332.4</ele>
        <time>2022-06-22T16:47:40Z</time>
      </trkpt>
      <trkpt lat="49.18565" lon="7.42743">
        <ele>332.3</ele>
        <time>2022-06-22T16:47:52Z</time>
      </trkpt>
      <trkpt lat="49.18565" lon="7.42743">
        <ele>332.3</ele>
        <time>2022-06-22T16:47:55Z</time>
      </trkpt>
      <trkpt lat="49.18566" lon="7.42743">
        <ele>332.2</ele>
        <time>2022-06-22T16:48:40Z</time>
      </trkpt>
      <trkpt lat="49.18575" lon="7.42742">
        <ele>332</ele>
        <time>2022-06-22T16:48:49Z</time>
      </trkpt>
      <trkpt lat="49.18582" lon="7.42734">
        <ele>331.6</ele>
        <time>2022-06-22T16:48:59Z</time>
      </trkpt>
      <trkpt lat="49.1859" lon="7.42725">
        <ele>331.2</ele>
        <time>2022-06-22T16:49:09Z</time>
      </trkpt>
      <trkpt lat="49.18597" lon="7.42715">
        <ele>330.6</ele>
        <time>2022-06-22T16:49:19Z</time>
      </trkpt>
      <trkpt lat="49.18604" lon="7.42705">
        <ele>329.9</ele>
        <time>2022-06-22T16:49:28Z</time>
      </trkpt>
      <trkpt lat="49.18611" lon="7.42695">
        <ele>329.1</ele>
        <time>2022-06-22T16:49:37Z</time>
      </trkpt>
      <trkpt lat="49.18618" lon="7.42686">
        <ele>328.1</ele>
        <time>2022-06-22T16:49:46Z</time>
      </trkpt>
      <trkpt lat="49.18625" lon="7.42676">
        <ele>327.1</ele>
        <time>2022-06-22T16:49:55Z</time>
      </trkpt>
      <trkpt lat="49.18632" lon="7.42666">
        <ele>326.1</ele>
        <time>2022-06-22T16:50:04Z</time>
      </trkpt>
      <trkpt lat="49.18639" lon="7.42656">
        <ele>325.2</ele>
        <time>2022-06-22T16:50:13Z</time>
      </trkpt>
      <trkpt lat="49.18646" lon="7.42647">
        <ele>324.2</ele>
        <time>2022-06-22T16:50:22Z</time>
      </trkpt>
      <trkpt lat="49.18653" lon="7.42637">
        <ele>323.3</ele>
        <time>2022-06-22T16:50:31Z</time>
      </trkpt>
      <trkpt lat="49.1866" lon="7.42627">
        <ele>322.3</ele>
        <time>2022-06-22T16:50:40Z</time>
      </trkpt>
      <trkpt lat="49.18668" lon="7.42617">
        <ele>321.2</ele>
        <time>2022-06-22T16:50:49Z</time>
      </trkpt>
      <trkpt lat="49.18674" lon="7.42608">
        <ele>320.3</ele>
        <time>2022-06-22T16:50:58Z</time>
      </trkpt>
      <trkpt lat="49.18682" lon="7.42598">
        <ele>319.4</ele>
        <time>2022-06-22T16:51:07Z</time>
      </trkpt>
      <trkpt lat="49.1869" lon="7.42588">
        <ele>318.5</ele>
        <time>2022-06-22T16:51:16Z</time>
      </trkpt>
      <trkpt lat="49.18697" lon="7.42581">
        <ele>317.5</ele>
        <time>2022-06-22T16:51:24Z</time>
      </trkpt>
      <trkpt lat="49.18706" lon="7.42573">
        <ele>316.4</ele>
        <time>2022-06-22T16:51:33Z</time>
      </trkpt>
      <trkpt lat="49.18715" lon="7.42565">
        <ele>315.5</ele>
        <time>2022-06-22T16:51:42Z</time>
      </trkpt>
      <trkpt lat="49.18723" lon="7.42557">
        <ele>314.7</ele>
        <time>2022-06-22T16:51:51Z</time>
      </trkpt>
      <trkpt lat="49.18731" lon="7.42549">
        <ele>313.8</ele>
        <time>2022-06-22T16:52:00Z</time>
      </trkpt>
      <trkpt lat="49.18739" lon="7.42541">
        <ele>312.9</ele>
        <time>2022-06-22T16:52:09Z</time>
      </trkpt>
      <trkpt lat="49.18747" lon="7.42533">
        <ele>312.1</ele>
        <time>2022-06-22T16:52:17Z</time>
      </trkpt>
      <trkpt lat="49.18755" lon="7.42525">
        <ele>311.3</ele>
        <time>2022-06-22T16:52:26Z</time>
      </trkpt>
      <trkpt lat="49.18763" lon="7.42518">
        <ele>310.7</ele>
        <time>2022-06-22T16:52:34Z</time>
      </trkpt>
      <trkpt lat="49.18771" lon="7.42512">
        <ele>310</ele>
        <time>2022-06-22T16:52:42Z</time>
      </trkpt>
      <trkpt lat="49.18781" lon="7.42507">
        <ele>309.5</ele>
        <time>2022-06-22T16:52:51Z</time>
      </trkpt>
      <trkpt lat="49.18791" lon="7.42503">
        <ele>309</ele>
        <time>2022-06-22T16:53:00Z</time>
      </trkpt>
      <trkpt lat="49.188" lon="7.42501">
        <ele>308.6</ele>
        <time>2022-06-22T16:53:09Z</time>
      </trkpt>
      <trkpt lat="49.18809" lon="7.42497">
        <ele>308.2</ele>
        <time>2022-06-22T16:53:19Z</time>
      </trkpt>
      <trkpt lat="49.18817" lon="7.42493">
        <ele>307.9</ele>
        <time>2022-06-22T16:53:29Z</time>
      </trkpt>
      <trkpt lat="49.18817" lon="7.42492">
        <ele>307.8</ele>
        <time>2022-06-22T16:53:31Z</time>
      </trkpt>
      <trkpt lat="49.18817" lon="7.42478">
        <ele>307.4</ele>
        <time>2022-06-22T16:53:42Z</time>
      </trkpt>
      <trkpt lat="49.18818" lon="7.4247">
        <ele>307.1</ele>
        <time>2022-06-22T16:53:49Z</time>
      </trkpt>
      <trkpt lat="49.18818" lon="7.42469">
        <ele>307.1</ele>
        <time>2022-06-22T16:53:58Z</time>
      </trkpt>
      <trkpt lat="49.18821" lon="7.42455">
        <ele>306.7</ele>
        <time>2022-06-22T16:54:07Z</time>
      </trkpt>
      <trkpt lat="49.18822" lon="7.4244">
        <ele>306.2</ele>
        <time>2022-06-22T16:54:16Z</time>
      </trkpt>
      <trkpt lat="49.18823" lon="7.42425">
        <ele>305.7</ele>
        <time>2022-06-22T16:54:25Z</time>
      </trkpt>
      <trkpt lat="49.18823" lon="7.42411">
        <ele>305.2</ele>
        <time>2022-06-22T16:54:34Z</time>
      </trkpt>
      <trkpt lat="49.18823" lon="7.42396">
        <ele>304.8</ele>
        <time>2022-06-22T16:54:43Z</time>
      </trkpt>
      <trkpt lat="49.18821" lon="7.42381">
        <ele>304.3</ele>
        <time>2022-06-22T16:54:52Z</time>
      </trkpt>
      <trkpt lat="49.18819" lon="7.42366">
        <ele>303.7</ele>
        <time>2022-06-22T16:55:01Z</time>
      </trkpt>
      <trkpt lat="49.18815" lon="7.42352">
        <ele>303.1</ele>
        <time>2022-06-22T16:55:10Z</time>
      </trkpt>
      <trkpt lat="49.1881" lon="7.42339">
        <ele>302.6</ele>
        <time>2022-06-22T16:55:19Z</time>
      </trkpt>
      <trkpt lat="49.18806" lon="7.42326">
        <ele>302</ele>
        <time>2022-06-22T16:55:27Z</time>
      </trkpt>
      <trkpt lat="49.18801" lon="7.42314">
        <ele>301.4</ele>
        <time>2022-06-22T16:55:35Z</time>
      </trkpt>
      <trkpt lat="49.18797" lon="7.42301">
        <ele>300.8</ele>
        <time>2022-06-22T16:55:43Z</time>
      </trkpt>
      <trkpt lat="49.18793" lon="7.42289">
        <ele>300.3</ele>
        <time>2022-06-22T16:55:51Z</time>
      </trkpt>
      <trkpt lat="49.18788" lon="7.42277">
        <ele>299.7</ele>
        <time>2022-06-22T16:55:59Z</time>
      </trkpt>
      <trkpt lat="49.18784" lon="7.42264">
        <ele>299.1</ele>
        <time>2022-06-22T16:56:07Z</time>
      </trkpt>
      <trkpt lat="49.18779" lon="7.42251">
        <ele>298.5</ele>
        <time>2022-06-22T16:56:15Z</time>
      </trkpt>
      <trkpt lat="49.18774" lon="7.4224">
        <ele>298</ele>
        <time>2022-06-22T16:56:23Z</time>
      </trkpt>
      <trkpt lat="49.18768" lon="7.42228">
        <ele>297.3</ele>
        <time>2022-06-22T16:56:32Z</time>
      </trkpt>
      <trkpt lat="49.18762" lon="7.42217">
        <ele>296.7</ele>
        <time>2022-06-22T16:56:40Z</time>
      </trkpt>
      <trkpt lat="49.18758" lon="7.42203">
        <ele>296.1</ele>
        <time>2022-06-22T16:56:48Z</time>
      </trkpt>
      <trkpt lat="49.18754" lon="7.42189">
        <ele>295.4</ele>
        <time>2022-06-22T16:56:57Z</time>
      </trkpt>
      <trkpt lat="49.1875" lon="7.42176">
        <ele>294.8</ele>
        <time>2022-06-22T16:57:06Z</time>
      </trkpt>
      <trkpt lat="49.18746" lon="7.42162">
        <ele>294.2</ele>
        <time>2022-06-22T16:57:15Z</time>
      </trkpt>
      <trkpt lat="49.18742" lon="7.42148">
        <ele>293.6</ele>
        <time>2022-06-22T16:57:24Z</time>
      </trkpt>
      <trkpt lat="49.1874" lon="7.42135">
        <ele>293.2</ele>
        <time>2022-06-22T16:57:33Z</time>
      </trkpt>
      <trkpt lat="49.18736" lon="7.42121">
        <ele>292.8</ele>
        <time>2022-06-22T16:57:42Z</time>
      </trkpt>
      <trkpt lat="49.18731" lon="7.42109">
        <ele>292.6</ele>
        <time>2022-06-22T16:57:51Z</time>
      </trkpt>
      <trkpt lat="49.18723" lon="7.421">
        <ele>292.5</ele>
        <time>2022-06-22T16:57:59Z</time>
      </trkpt>
      <trkpt lat="49.18715" lon="7.42091">
        <ele>292.5</ele>
        <time>2022-06-22T16:58:08Z</time>
      </trkpt>
      <trkpt lat="49.18708" lon="7.42083">
        <ele>292.7</ele>
        <time>2022-06-22T16:58:17Z</time>
      </trkpt>
      <trkpt lat="49.187" lon="7.42074">
        <ele>292.8</ele>
        <time>2022-06-22T16:58:25Z</time>
      </trkpt>
      <trkpt lat="49.18693" lon="7.42065">
        <ele>293.1</ele>
        <time>2022-06-22T16:58:33Z</time>
      </trkpt>
      <trkpt lat="49.18685" lon="7.42056">
        <ele>293.3</ele>
        <time>2022-06-22T16:58:42Z</time>
      </trkpt>
      <trkpt lat="49.18678" lon="7.42048">
        <ele>293.5</ele>
        <time>2022-06-22T16:58:50Z</time>
      </trkpt>
      <trkpt lat="49.1867" lon="7.42039">
        <ele>293.8</ele>
        <time>2022-06-22T16:58:59Z</time>
      </trkpt>
      <trkpt lat="49.18662" lon="7.4203">
        <ele>294.1</ele>
        <time>2022-06-22T16:59:07Z</time>
      </trkpt>
      <trkpt lat="49.18654" lon="7.42022">
        <ele>294.3</ele>
        <time>2022-06-22T16:59:15Z</time>
      </trkpt>
      <trkpt lat="49.18647" lon="7.42013">
        <ele>294.5</ele>
        <time>2022-06-22T16:59:23Z</time>
      </trkpt>
      <trkpt lat="49.18639" lon="7.42005">
        <ele>294.7</ele>
        <time>2022-06-22T16:59:31Z</time>
      </trkpt>
      <trkpt lat="49.18632" lon="7.41997">
        <ele>295</ele>
        <time>2022-06-22T16:59:39Z</time>
      </trkpt>
      <trkpt lat="49.18624" lon="7.41987">
        <ele>295.2</ele>
        <time>2022-06-22T16:59:48Z</time>
      </trkpt>
      <trkpt lat="49.18617" lon="7.41979">
        <ele>295.4</ele>
        <time>2022-06-22T16:59:56Z</time>
      </trkpt>
      <trkpt lat="49.18609" lon="7.41971">
        <ele>295.5</ele>
        <time>2022-06-22T17:00:04Z</time>
      </trkpt>
      <trkpt lat="49.18601" lon="7.41962">
        <ele>295.6</ele>
        <time>2022-06-22T17:00:13Z</time>
      </trkpt>
      <trkpt lat="49.18594" lon="7.41953">
        <ele>295.6</ele>
        <time>2022-06-22T17:00:21Z</time>
      </trkpt>
      <trkpt lat="49.18586" lon="7.41944">
        <ele>295.6</ele>
        <time>2022-06-22T17:00:30Z</time>
      </trkpt>
      <trkpt lat="49.18579" lon="7.41936">
        <ele>295.6</ele>
        <time>2022-06-22T17:00:38Z</time>
      </trkpt>
      <trkpt lat="49.18571" lon="7.41927">
        <ele>295.6</ele>
        <time>2022-06-22T17:00:47Z</time>
      </trkpt>
      <trkpt lat="49.18564" lon="7.41918">
        <ele>295.6</ele>
        <time>2022-06-22T17:00:55Z</time>
      </trkpt>
      <trkpt lat="49.18555" lon="7.41909">
        <ele>295.6</ele>
        <time>2022-06-22T17:01:04Z</time>
      </trkpt>
      <trkpt lat="49.18547" lon="7.419">
        <ele>295.5</ele>
        <time>2022-06-22T17:01:13Z</time>
      </trkpt>
      <trkpt lat="49.1854" lon="7.4189">
        <ele>295.5</ele>
        <time>2022-06-22T17:01:21Z</time>
      </trkpt>
      <trkpt lat="49.18534" lon="7.4188">
        <ele>295.3</ele>
        <time>2022-06-22T17:01:29Z</time>
      </trkpt>
      <trkpt lat="49.18528" lon="7.4187">
        <ele>295.2</ele>
        <time>2022-06-22T17:01:37Z</time>
      </trkpt>
      <trkpt lat="49.18521" lon="7.4186">
        <ele>295</ele>
        <time>2022-06-22T17:01:45Z</time>
      </trkpt>
      <trkpt lat="49.18515" lon="7.41849">
        <ele>294.8</ele>
        <time>2022-06-22T17:01:53Z</time>
      </trkpt>
      <trkpt lat="49.18509" lon="7.41839">
        <ele>294.7</ele>
        <time>2022-06-22T17:02:01Z</time>
      </trkpt>
      <trkpt lat="49.18502" lon="7.41829">
        <ele>294.5</ele>
        <time>2022-06-22T17:02:09Z</time>
      </trkpt>
      <trkpt lat="49.18496" lon="7.41818">
        <ele>294.3</ele>
        <time>2022-06-22T17:02:17Z</time>
      </trkpt>
      <trkpt lat="49.1849" lon="7.41808">
        <ele>294.1</ele>
        <time>2022-06-22T17:02:25Z</time>
      </trkpt>
      <trkpt lat="49.18483" lon="7.41797">
        <ele>293.9</ele>
        <time>2022-06-22T17:02:34Z</time>
      </trkpt>
      <trkpt lat="49.18481" lon="7.41794">
        <ele>293.9</ele>
        <time>2022-06-22T17:02:39Z</time>
      </trkpt>
      <trkpt lat="49.18482" lon="7.41794">
        <ele>293.9</ele>
        <time>2022-06-22T17:02:43Z</time>
      </trkpt>
      <trkpt lat="49.18476" lon="7.41783">
        <ele>293.7</ele>
        <time>2022-06-22T17:02:54Z</time>
      </trkpt>
      <trkpt lat="49.18469" lon="7.41772">
        <ele>293.5</ele>
        <time>2022-06-22T17:03:03Z</time>
      </trkpt>
      <trkpt lat="49.18462" lon="7.41762">
        <ele>293.3</ele>
        <time>2022-06-22T17:03:11Z</time>
      </trkpt>
      <trkpt lat="49.18456" lon="7.41751">
        <ele>293.2</ele>
        <time>2022-06-22T17:03:20Z</time>
      </trkpt>
      <trkpt lat="49.18449" lon="7.41739">
        <ele>293</ele>
        <time>2022-06-22T17:03:29Z</time>
      </trkpt>
      <trkpt lat="49.18443" lon="7.41729">
        <ele>292.8</ele>
        <time>2022-06-22T17:03:38Z</time>
      </trkpt>
      <trkpt lat="49.18437" lon="7.41718">
        <ele>292.6</ele>
        <time>2022-06-22T17:03:47Z</time>
      </trkpt>
      <trkpt lat="49.18431" lon="7.41708">
        <ele>292.4</ele>
        <time>2022-06-22T17:03:56Z</time>
      </trkpt>
      <trkpt lat="49.18424" lon="7.41697">
        <ele>292.1</ele>
        <time>2022-06-22T17:04:05Z</time>
      </trkpt>
      <trkpt lat="49.18418" lon="7.41685">
        <ele>291.7</ele>
        <time>2022-06-22T17:04:14Z</time>
      </trkpt>
      <trkpt lat="49.18413" lon="7.41673">
        <ele>291.3</ele>
        <time>2022-06-22T17:04:23Z</time>
      </trkpt>
      <trkpt lat="49.18408" lon="7.41661">
        <ele>290.8</ele>
        <time>2022-06-22T17:04:32Z</time>
      </trkpt>
      <trkpt lat="49.18403" lon="7.41649">
        <ele>290.4</ele>
        <time>2022-06-22T17:04:41Z</time>
      </trkpt>
      <trkpt lat="49.18397" lon="7.41636">
        <ele>290</ele>
        <time>2022-06-22T17:04:50Z</time>
      </trkpt>
      <trkpt lat="49.18392" lon="7.41624">
        <ele>289.6</ele>
        <time>2022-06-22T17:04:59Z</time>
      </trkpt>
      <trkpt lat="49.18386" lon="7.41611">
        <ele>289.3</ele>
        <time>2022-06-22T17:05:08Z</time>
      </trkpt>
      <trkpt lat="49.18381" lon="7.416">
        <ele>289.1</ele>
        <time>2022-06-22T17:05:16Z</time>
      </trkpt>
      <trkpt lat="49.18376" lon="7.41587">
        <ele>288.8</ele>
        <time>2022-06-22T17:05:25Z</time>
      </trkpt>
      <trkpt lat="49.1837" lon="7.41575">
        <ele>288.6</ele>
        <time>2022-06-22T17:05:34Z</time>
      </trkpt>
      <trkpt lat="49.18365" lon="7.41563">
        <ele>288.4</ele>
        <time>2022-06-22T17:05:43Z</time>
      </trkpt>
      <trkpt lat="49.1836" lon="7.41551">
        <ele>288.3</ele>
        <time>2022-06-22T17:05:52Z</time>
      </trkpt>
      <trkpt lat="49.18354" lon="7.41538">
        <ele>288.2</ele>
        <time>2022-06-22T17:06:01Z</time>
      </trkpt>
      <trkpt lat="49.18352" lon="7.41533">
        <ele>288.1</ele>
        <time>2022-06-22T17:06:07Z</time>
      </trkpt>
      <trkpt lat="49.18352" lon="7.41533">
        <ele>288.1</ele>
        <time>2022-06-22T17:06:11Z</time>
      </trkpt>
      <trkpt lat="49.18348" lon="7.41521">
        <ele>288.1</ele>
        <time>2022-06-22T17:06:25Z</time>
      </trkpt>
      <trkpt lat="49.18343" lon="7.4151">
        <ele>288</ele>
        <time>2022-06-22T17:06:33Z</time>
      </trkpt>
      <trkpt lat="49.18337" lon="7.41497">
        <ele>288</ele>
        <time>2022-06-22T17:06:42Z</time>
      </trkpt>
      <trkpt lat="49.18332" lon="7.41485">
        <ele>288</ele>
        <time>2022-06-22T17:06:51Z</time>
      </trkpt>
      <trkpt lat="49.18326" lon="7.41473">
        <ele>288</ele>
        <time>2022-06-22T17:06:59Z</time>
      </trkpt>
      <trkpt lat="49.18321" lon="7.41461">
        <ele>288</ele>
        <time>2022-06-22T17:07:08Z</time>
      </trkpt>
      <trkpt lat="49.18316" lon="7.41448">
        <ele>288</ele>
        <time>2022-06-22T17:07:17Z</time>
      </trkpt>
      <trkpt lat="49.18311" lon="7.41435">
        <ele>288</ele>
        <time>2022-06-22T17:07:26Z</time>
      </trkpt>
      <trkpt lat="49.18307" lon="7.41423">
        <ele>288.1</ele>
        <time>2022-06-22T17:07:34Z</time>
      </trkpt>
      <trkpt lat="49.18304" lon="7.41409">
        <ele>288</ele>
        <time>2022-06-22T17:07:43Z</time>
      </trkpt>
      <trkpt lat="49.18301" lon="7.41395">
        <ele>287.9</ele>
        <time>2022-06-22T17:07:52Z</time>
      </trkpt>
      <trkpt lat="49.18299" lon="7.41381">
        <ele>287.7</ele>
        <time>2022-06-22T17:08:00Z</time>
      </trkpt>
      <trkpt lat="49.18296" lon="7.41367">
        <ele>287.5</ele>
        <time>2022-06-22T17:08:08Z</time>
      </trkpt>
      <trkpt lat="49.18295" lon="7.41353">
        <ele>287.3</ele>
        <time>2022-06-22T17:08:16Z</time>
      </trkpt>
      <trkpt lat="49.18294" lon="7.41339">
        <ele>287.2</ele>
        <time>2022-06-22T17:08:24Z</time>
      </trkpt>
      <trkpt lat="49.18292" lon="7.41326">
        <ele>287</ele>
        <time>2022-06-22T17:08:32Z</time>
      </trkpt>
      <trkpt lat="49.18291" lon="7.41311">
        <ele>286.8</ele>
        <time>2022-06-22T17:08:41Z</time>
      </trkpt>
      <trkpt lat="49.1829" lon="7.41296">
        <ele>286.6</ele>
        <time>2022-06-22T17:08:50Z</time>
      </trkpt>
      <trkpt lat="49.18288" lon="7.41281">
        <ele>286.4</ele>
        <time>2022-06-22T17:08:59Z</time>
      </trkpt>
      <trkpt lat="49.18287" lon="7.41266">
        <ele>286.2</ele>
        <time>2022-06-22T17:09:08Z</time>
      </trkpt>
      <trkpt lat="49.18285" lon="7.41252">
        <ele>285.9</ele>
        <time>2022-06-22T17:09:17Z</time>
      </trkpt>
      <trkpt lat="49.18283" lon="7.41237">
        <ele>285.7</ele>
        <time>2022-06-22T17:09:26Z</time>
      </trkpt>
      <trkpt lat="49.18282" lon="7.41222">
        <ele>285.4</ele>
        <time>2022-06-22T17:09:35Z</time>
      </trkpt>
      <trkpt lat="49.18279" lon="7.41209">
        <ele>285.1</ele>
        <time>2022-06-22T17:09:43Z</time>
      </trkpt>
      <trkpt lat="49.18277" lon="7.41195">
        <ele>284.9</ele>
        <time>2022-06-22T17:09:52Z</time>
      </trkpt>
      <trkpt lat="49.18276" lon="7.41181">
        <ele>284.6</ele>
        <time>2022-06-22T17:10:01Z</time>
      </trkpt>
      <trkpt lat="49.18274" lon="7.41166">
        <ele>284.4</ele>
        <time>2022-06-22T17:10:11Z</time>
      </trkpt>
      <trkpt lat="49.18273" lon="7.41152">
        <ele>284.2</ele>
        <time>2022-06-22T17:10:20Z</time>
      </trkpt>
      <trkpt lat="49.18271" lon="7.41138">
        <ele>284.1</ele>
        <time>2022-06-22T17:10:29Z</time>
      </trkpt>
      <trkpt lat="49.1827" lon="7.41124">
        <ele>284</ele>
        <time>2022-06-22T17:10:38Z</time>
      </trkpt>
      <trkpt lat="49.18267" lon="7.41111">
        <ele>284.1</ele>
        <time>2022-06-22T17:10:46Z</time>
      </trkpt>
      <trkpt lat="49.18264" lon="7.41097">
        <ele>284.3</ele>
        <time>2022-06-22T17:10:55Z</time>
      </trkpt>
      <trkpt lat="49.18263" lon="7.41083">
        <ele>284.6</ele>
        <time>2022-06-22T17:11:04Z</time>
      </trkpt>
      <trkpt lat="49.18259" lon="7.41071">
        <ele>284.9</ele>
        <time>2022-06-22T17:11:12Z</time>
      </trkpt>
      <trkpt lat="49.18258" lon="7.41071">
        <ele>285</ele>
        <time>2022-06-22T17:11:15Z</time>
      </trkpt>
      <trkpt lat="49.18259" lon="7.4107">
        <ele>285</ele>
        <time>2022-06-22T17:11:16Z</time>
      </trkpt>
      <trkpt lat="49.18258" lon="7.41056">
        <ele>285.3</ele>
        <time>2022-06-22T17:11:27Z</time>
      </trkpt>
      <trkpt lat="49.18254" lon="7.41043">
        <ele>285.6</ele>
        <time>2022-06-22T17:11:35Z</time>
      </trkpt>
      <trkpt lat="49.18251" lon="7.41029">
        <ele>285.9</ele>
        <time>2022-06-22T17:11:44Z</time>
      </trkpt>
      <trkpt lat="49.18247" lon="7.41017">
        <ele>286.2</ele>
        <time>2022-06-22T17:11:52Z</time>
      </trkpt>
      <trkpt lat="49.18242" lon="7.41004">
        <ele>286.4</ele>
        <time>2022-06-22T17:12:00Z</time>
      </trkpt>
      <trkpt lat="49.18237" lon="7.40992">
        <ele>286.4</ele>
        <time>2022-06-22T17:12:07Z</time>
      </trkpt>
      <trkpt lat="49.18232" lon="7.4098">
        <ele>286.4</ele>
        <time>2022-06-22T17:12:16Z</time>
      </trkpt>
      <trkpt lat="49.18229" lon="7.4097">
        <ele>286.3</ele>
        <time>2022-06-22T17:12:28Z</time>
      </trkpt>
      <trkpt lat="49.18229" lon="7.4097">
        <ele>286.3</ele>
        <time>2022-06-22T17:12:29Z</time>
      </trkpt>
      <trkpt lat="49.18229" lon="7.4097">
        <ele>286.3</ele>
        <time>2022-06-22T17:12:30Z</time>
      </trkpt>
      <trkpt lat="49.18228" lon="7.40969">
        <ele>286.3</ele>
        <time>2022-06-22T17:12:53Z</time>
      </trkpt>
      <trkpt lat="49.18219" lon="7.40968">
        <ele>286.8</ele>
        <time>2022-06-22T17:13:04Z</time>
      </trkpt>
      <trkpt lat="49.18209" lon="7.40972">
        <ele>287.8</ele>
        <time>2022-06-22T17:13:14Z</time>
      </trkpt>
      <trkpt lat="49.18201" lon="7.40977">
        <ele>288.8</ele>
        <time>2022-06-22T17:13:23Z</time>
      </trkpt>
      <trkpt lat="49.18191" lon="7.4098">
        <ele>290</ele>
        <time>2022-06-22T17:13:33Z</time>
      </trkpt>
      <trkpt lat="49.18182" lon="7.40983">
        <ele>291.1</ele>
        <time>2022-06-22T17:13:44Z</time>
      </trkpt>
      <trkpt lat="49.18172" lon="7.40987">
        <ele>292.5</ele>
        <time>2022-06-22T17:13:54Z</time>
      </trkpt>
      <trkpt lat="49.18163" lon="7.40987">
        <ele>293.7</ele>
        <time>2022-06-22T17:14:04Z</time>
      </trkpt>
      <trkpt lat="49.18154" lon="7.4099">
        <ele>295</ele>
        <time>2022-06-22T17:14:13Z</time>
      </trkpt>
      <trkpt lat="49.18145" lon="7.40994">
        <ele>296.2</ele>
        <time>2022-06-22T17:14:22Z</time>
      </trkpt>
      <trkpt lat="49.18136" lon="7.40998">
        <ele>297.5</ele>
        <time>2022-06-22T17:14:31Z</time>
      </trkpt>
      <trkpt lat="49.18127" lon="7.41001">
        <ele>299</ele>
        <time>2022-06-22T17:14:39Z</time>
      </trkpt>
      <trkpt lat="49.18117" lon="7.41005">
        <ele>300.4</ele>
        <time>2022-06-22T17:14:48Z</time>
      </trkpt>
      <trkpt lat="49.18108" lon="7.41009">
        <ele>301.6</ele>
        <time>2022-06-22T17:14:56Z</time>
      </trkpt>
      <trkpt lat="49.18098" lon="7.41006">
        <ele>302.7</ele>
        <time>2022-06-22T17:15:06Z</time>
      </trkpt>
      <trkpt lat="49.18094" lon="7.40993">
        <ele>303.6</ele>
        <time>2022-06-22T17:15:14Z</time>
      </trkpt>
      <trkpt lat="49.18091" lon="7.40979">
        <ele>303.8</ele>
        <time>2022-06-22T17:15:22Z</time>
      </trkpt>
      <trkpt lat="49.18087" lon="7.40965">
        <ele>303.5</ele>
        <time>2022-06-22T17:15:30Z</time>
      </trkpt>
      <trkpt lat="49.18085" lon="7.40951">
        <ele>303</ele>
        <time>2022-06-22T17:15:38Z</time>
      </trkpt>
      <trkpt lat="49.18082" lon="7.40937">
        <ele>302.6</ele>
        <time>2022-06-22T17:15:46Z</time>
      </trkpt>
      <trkpt lat="49.18079" lon="7.40923">
        <ele>302.1</ele>
        <time>2022-06-22T17:15:55Z</time>
      </trkpt>
      <trkpt lat="49.18076" lon="7.40908">
        <ele>301.7</ele>
        <time>2022-06-22T17:16:04Z</time>
      </trkpt>
      <trkpt lat="49.18074" lon="7.40895">
        <ele>301.2</ele>
        <time>2022-06-22T17:16:12Z</time>
      </trkpt>
      <trkpt lat="49.1807" lon="7.40881">
        <ele>300.6</ele>
        <time>2022-06-22T17:16:20Z</time>
      </trkpt>
      <trkpt lat="49.18068" lon="7.40867">
        <ele>300</ele>
        <time>2022-06-22T17:16:28Z</time>
      </trkpt>
      <trkpt lat="49.18065" lon="7.40853">
        <ele>299.6</ele>
        <time>2022-06-22T17:16:37Z</time>
      </trkpt>
      <trkpt lat="49.18063" lon="7.40838">
        <ele>299.1</ele>
        <time>2022-06-22T17:16:46Z</time>
      </trkpt>
      <trkpt lat="49.1806" lon="7.40824">
        <ele>298.7</ele>
        <time>2022-06-22T17:16:54Z</time>
      </trkpt>
      <trkpt lat="49.18057" lon="7.4081">
        <ele>298.3</ele>
        <time>2022-06-22T17:17:02Z</time>
      </trkpt>
      <trkpt lat="49.18055" lon="7.40797">
        <ele>298.1</ele>
        <time>2022-06-22T17:17:10Z</time>
      </trkpt>
      <trkpt lat="49.18053" lon="7.40783">
        <ele>297.9</ele>
        <time>2022-06-22T17:17:18Z</time>
      </trkpt>
      <trkpt lat="49.1805" lon="7.40769">
        <ele>297.7</ele>
        <time>2022-06-22T17:17:26Z</time>
      </trkpt>
      <trkpt lat="49.18047" lon="7.40756">
        <ele>297.5</ele>
        <time>2022-06-22T17:17:34Z</time>
      </trkpt>
      <trkpt lat="49.18044" lon="7.40743">
        <ele>297.3</ele>
        <time>2022-06-22T17:17:42Z</time>
      </trkpt>
      <trkpt lat="49.18042" lon="7.40728">
        <ele>297.1</ele>
        <time>2022-06-22T17:17:51Z</time>
      </trkpt>
      <trkpt lat="49.18039" lon="7.40714">
        <ele>296.9</ele>
        <time>2022-06-22T17:18:00Z</time>
      </trkpt>
      <trkpt lat="49.18037" lon="7.407">
        <ele>296.6</ele>
        <time>2022-06-22T17:18:09Z</time>
      </trkpt>
      <trkpt lat="49.18035" lon="7.40686">
        <ele>296.4</ele>
        <time>2022-06-22T17:18:18Z</time>
      </trkpt>
      <trkpt lat="49.18032" lon="7.40672">
        <ele>296.2</ele>
        <time>2022-06-22T17:18:27Z</time>
      </trkpt>
      <trkpt lat="49.18029" lon="7.40659">
        <ele>296</ele>
        <time>2022-06-22T17:18:35Z</time>
      </trkpt>
      <trkpt lat="49.18027" lon="7.40645">
        <ele>295.8</ele>
        <time>2022-06-22T17:18:44Z</time>
      </trkpt>
      <trkpt lat="49.18024" lon="7.40631">
        <ele>295.5</ele>
        <time>2022-06-22T17:18:52Z</time>
      </trkpt>
      <trkpt lat="49.18022" lon="7.40618">
        <ele>295.1</ele>
        <time>2022-06-22T17:19:00Z</time>
      </trkpt>
      <trkpt lat="49.1802" lon="7.40603">
        <ele>294.9</ele>
        <time>2022-06-22T17:19:09Z</time>
      </trkpt>
      <trkpt lat="49.18018" lon="7.40587">
        <ele>294.6</ele>
        <time>2022-06-22T17:19:18Z</time>
      </trkpt>
      <trkpt lat="49.18017" lon="7.40573">
        <ele>294.3</ele>
        <time>2022-06-22T17:19:26Z</time>
      </trkpt>
      <trkpt lat="49.18015" lon="7.40558">
        <ele>293.9</ele>
        <time>2022-06-22T17:19:34Z</time>
      </trkpt>
      <trkpt lat="49.18013" lon="7.40544">
        <ele>293.5</ele>
        <time>2022-06-22T17:19:42Z</time>
      </trkpt>
      <trkpt lat="49.18012" lon="7.40529">
        <ele>293.1</ele>
        <time>2022-06-22T17:19:51Z</time>
      </trkpt>
      <trkpt lat="49.1801" lon="7.40515">
        <ele>292.8</ele>
        <time>2022-06-22T17:19:59Z</time>
      </trkpt>
      <trkpt lat="49.18008" lon="7.40501">
        <ele>292.5</ele>
        <time>2022-06-22T17:20:07Z</time>
      </trkpt>
      <trkpt lat="49.18005" lon="7.40487">
        <ele>292.1</ele>
        <time>2022-06-22T17:20:15Z</time>
      </trkpt>
      <trkpt lat="49.18001" lon="7.40475">
        <ele>291.8</ele>
        <time>2022-06-22T17:20:23Z</time>
      </trkpt>
      <trkpt lat="49.17998" lon="7.4046">
        <ele>291.5</ele>
        <time>2022-06-22T17:20:32Z</time>
      </trkpt>
      <trkpt lat="49.17994" lon="7.40446">
        <ele>291.3</ele>
        <time>2022-06-22T17:20:41Z</time>
      </trkpt>
      <trkpt lat="49.17991" lon="7.40433">
        <ele>291.4</ele>
        <time>2022-06-22T17:20:49Z</time>
      </trkpt>
      <trkpt lat="49.17989" lon="7.40418">
        <ele>291.6</ele>
        <time>2022-06-22T17:20:58Z</time>
      </trkpt>
      <trkpt lat="49.17987" lon="7.40403">
        <ele>291.7</ele>
        <time>2022-06-22T17:21:07Z</time>
      </trkpt>
      <trkpt lat="49.17987" lon="7.40389">
        <ele>291.9</ele>
        <time>2022-06-22T17:21:15Z</time>
      </trkpt>
      <trkpt lat="49.17986" lon="7.40374">
        <ele>292.1</ele>
        <time>2022-06-22T17:21:24Z</time>
      </trkpt>
      <trkpt lat="49.17984" lon="7.4036">
        <ele>292.3</ele>
        <time>2022-06-22T17:21:32Z</time>
      </trkpt>
      <trkpt lat="49.17983" lon="7.40346">
        <ele>292.4</ele>
        <time>2022-06-22T17:21:40Z</time>
      </trkpt>
      <trkpt lat="49.17982" lon="7.40332">
        <ele>292.5</ele>
        <time>2022-06-22T17:21:48Z</time>
      </trkpt>
      <trkpt lat="49.17981" lon="7.40318">
        <ele>292.6</ele>
        <time>2022-06-22T17:21:56Z</time>
      </trkpt>
      <trkpt lat="49.1798" lon="7.40305">
        <ele>292.7</ele>
        <time>2022-06-22T17:22:04Z</time>
      </trkpt>
      <trkpt lat="49.17979" lon="7.40291">
        <ele>293</ele>
        <time>2022-06-22T17:22:12Z</time>
      </trkpt>
      <trkpt lat="49.17978" lon="7.40277">
        <ele>293.1</ele>
        <time>2022-06-22T17:22:20Z</time>
      </trkpt>
      <trkpt lat="49.17976" lon="7.40262">
        <ele>293.2</ele>
        <time>2022-06-22T17:22:28Z</time>
      </trkpt>
      <trkpt lat="49.17975" lon="7.40248">
        <ele>293.3</ele>
        <time>2022-06-22T17:22:36Z</time>
      </trkpt>
      <trkpt lat="49.17973" lon="7.40233">
        <ele>293.4</ele>
        <time>2022-06-22T17:22:45Z</time>
      </trkpt>
      <trkpt lat="49.17969" lon="7.40219">
        <ele>293.5</ele>
        <time>2022-06-22T17:22:53Z</time>
      </trkpt>
      <trkpt lat="49.17965" lon="7.40207">
        <ele>293.7</ele>
        <time>2022-06-22T17:23:01Z</time>
      </trkpt>
      <trkpt lat="49.1796" lon="7.40195">
        <ele>294</ele>
        <time>2022-06-22T17:23:10Z</time>
      </trkpt>
      <trkpt lat="49.17953" lon="7.40184">
        <ele>294.2</ele>
        <time>2022-06-22T17:23:19Z</time>
      </trkpt>
      <trkpt lat="49.17947" lon="7.40174">
        <ele>294.4</ele>
        <time>2022-06-22T17:23:28Z</time>
      </trkpt>
      <trkpt lat="49.17939" lon="7.40164">
        <ele>294.5</ele>
        <time>2022-06-22T17:23:37Z</time>
      </trkpt>
      <trkpt lat="49.17933" lon="7.40153">
        <ele>294.5</ele>
        <time>2022-06-22T17:23:47Z</time>
      </trkpt>
      <trkpt lat="49.17926" lon="7.40143">
        <ele>294.7</ele>
        <time>2022-06-22T17:23:56Z</time>
      </trkpt>
      <trkpt lat="49.17919" lon="7.40134">
        <ele>295</ele>
        <time>2022-06-22T17:24:05Z</time>
      </trkpt>
      <trkpt lat="49.17911" lon="7.40124">
        <ele>295.1</ele>
        <time>2022-06-22T17:24:14Z</time>
      </trkpt>
      <trkpt lat="49.17904" lon="7.40115">
        <ele>295.2</ele>
        <time>2022-06-22T17:24:23Z</time>
      </trkpt>
      <trkpt lat="49.17897" lon="7.40104">
        <ele>295.4</ele>
        <time>2022-06-22T17:24:33Z</time>
      </trkpt>
      <trkpt lat="49.1789" lon="7.40093">
        <ele>295.5</ele>
        <time>2022-06-22T17:24:43Z</time>
      </trkpt>
      <trkpt lat="49.17883" lon="7.40084">
        <ele>295.7</ele>
        <time>2022-06-22T17:24:51Z</time>
      </trkpt>
      <trkpt lat="49.17876" lon="7.40074">
        <ele>295.8</ele>
        <time>2022-06-22T17:25:00Z</time>
      </trkpt>
      <trkpt lat="49.17869" lon="7.40064">
        <ele>296</ele>
        <time>2022-06-22T17:25:08Z</time>
      </trkpt>
      <trkpt lat="49.17862" lon="7.40054">
        <ele>296.1</ele>
        <time>2022-06-22T17:25:16Z</time>
      </trkpt>
      <trkpt lat="49.17856" lon="7.40045">
        <ele>296.2</ele>
        <time>2022-06-22T17:25:24Z</time>
      </trkpt>
      <trkpt lat="49.1785" lon="7.40032">
        <ele>296.3</ele>
        <time>2022-06-22T17:25:33Z</time>
      </trkpt>
      <trkpt lat="49.17846" lon="7.40018">
        <ele>296.3</ele>
        <time>2022-06-22T17:25:43Z</time>
      </trkpt>
      <trkpt lat="49.17842" lon="7.40005">
        <ele>296.4</ele>
        <time>2022-06-22T17:25:52Z</time>
      </trkpt>
      <trkpt lat="49.17839" lon="7.39992">
        <ele>296.6</ele>
        <time>2022-06-22T17:26:01Z</time>
      </trkpt>
      <trkpt lat="49.17835" lon="7.39978">
        <ele>296.7</ele>
        <time>2022-06-22T17:26:10Z</time>
      </trkpt>
      <trkpt lat="49.17832" lon="7.39965">
        <ele>296.8</ele>
        <time>2022-06-22T17:26:18Z</time>
      </trkpt>
      <trkpt lat="49.17829" lon="7.39951">
        <ele>297</ele>
        <time>2022-06-22T17:26:27Z</time>
      </trkpt>
      <trkpt lat="49.17825" lon="7.39938">
        <ele>297.1</ele>
        <time>2022-06-22T17:26:35Z</time>
      </trkpt>
      <trkpt lat="49.17822" lon="7.39925">
        <ele>297.3</ele>
        <time>2022-06-22T17:26:43Z</time>
      </trkpt>
      <trkpt lat="49.17819" lon="7.39912">
        <ele>297.4</ele>
        <time>2022-06-22T17:26:52Z</time>
      </trkpt>
      <trkpt lat="49.17816" lon="7.39898">
        <ele>297.4</ele>
        <time>2022-06-22T17:27:01Z</time>
      </trkpt>
      <trkpt lat="49.17814" lon="7.39884">
        <ele>297.4</ele>
        <time>2022-06-22T17:27:10Z</time>
      </trkpt>
      <trkpt lat="49.1781" lon="7.3987">
        <ele>297.5</ele>
        <time>2022-06-22T17:27:19Z</time>
      </trkpt>
      <trkpt lat="49.17807" lon="7.39857">
        <ele>297.6</ele>
        <time>2022-06-22T17:27:27Z</time>
      </trkpt>
      <trkpt lat="49.17803" lon="7.39843">
        <ele>297.8</ele>
        <time>2022-06-22T17:27:36Z</time>
      </trkpt>
      <trkpt lat="49.17801" lon="7.3983">
        <ele>297.9</ele>
        <time>2022-06-22T17:27:45Z</time>
      </trkpt>
      <trkpt lat="49.17799" lon="7.39816">
        <ele>298.2</ele>
        <time>2022-06-22T17:27:54Z</time>
      </trkpt>
      <trkpt lat="49.17796" lon="7.39802">
        <ele>298.7</ele>
        <time>2022-06-22T17:28:03Z</time>
      </trkpt>
      <trkpt lat="49.17793" lon="7.39789">
        <ele>299.2</ele>
        <time>2022-06-22T17:28:11Z</time>
      </trkpt>
      <trkpt lat="49.17792" lon="7.39774">
        <ele>299.9</ele>
        <time>2022-06-22T17:28:20Z</time>
      </trkpt>
      <trkpt lat="49.17795" lon="7.3976">
        <ele>300.4</ele>
        <time>2022-06-22T17:28:28Z</time>
      </trkpt>
      <trkpt lat="49.17798" lon="7.39755">
        <ele>300.6</ele>
        <time>2022-06-22T17:28:38Z</time>
      </trkpt>
      <trkpt lat="49.17798" lon="7.39755">
        <ele>300.6</ele>
        <time>2022-06-22T17:28:39Z</time>
      </trkpt>
      <trkpt lat="49.17798" lon="7.39755">
        <ele>300.6</ele>
        <time>2022-06-22T17:28:42Z</time>
      </trkpt>
      <trkpt lat="49.17798" lon="7.39756">
        <ele>300.6</ele>
        <time>2022-06-22T17:29:04Z</time>
      </trkpt>
      <trkpt lat="49.17798" lon="7.39756">
        <ele>300.6</ele>
        <time>2022-06-22T17:29:05Z</time>
      </trkpt>
      <trkpt lat="49.17798" lon="7.39755">
        <ele>300.6</ele>
        <time>2022-06-22T17:29:15Z</time>
      </trkpt>
      <trkpt lat="49.178" lon="7.39741">
        <ele>301.1</ele>
        <time>2022-06-22T17:29:25Z</time>
      </trkpt>
      <trkpt lat="49.17803" lon="7.39727">
        <ele>301.6</ele>
        <time>2022-06-22T17:29:34Z</time>
      </trkpt>
      <trkpt lat="49.17806" lon="7.39713">
        <ele>301.9</ele>
        <time>2022-06-22T17:29:42Z</time>
      </trkpt>
      <trkpt lat="49.17809" lon="7.39699">
        <ele>302.3</ele>
        <time>2022-06-22T17:29:50Z</time>
      </trkpt>
      <trkpt lat="49.17813" lon="7.39686">
        <ele>302.8</ele>
        <time>2022-06-22T17:29:57Z</time>
      </trkpt>
      <trkpt lat="49.17816" lon="7.39672">
        <ele>303.4</ele>
        <time>2022-06-22T17:30:05Z</time>
      </trkpt>
      <trkpt lat="49.17819" lon="7.39658">
        <ele>304.3</ele>
        <time>2022-06-22T17:30:14Z</time>
      </trkpt>
      <trkpt lat="49.17822" lon="7.39643">
        <ele>305.1</ele>
        <time>2022-06-22T17:30:22Z</time>
      </trkpt>
      <trkpt lat="49.17826" lon="7.39629">
        <ele>306</ele>
        <time>2022-06-22T17:30:32Z</time>
      </trkpt>
      <trkpt lat="49.17829" lon="7.39614">
        <ele>307</ele>
        <time>2022-06-22T17:30:41Z</time>
      </trkpt>
      <trkpt lat="49.17831" lon="7.39599">
        <ele>308.3</ele>
        <time>2022-06-22T17:30:51Z</time>
      </trkpt>
      <trkpt lat="49.17833" lon="7.39585">
        <ele>309.3</ele>
        <time>2022-06-22T17:31:00Z</time>
      </trkpt>
      <trkpt lat="49.17836" lon="7.39572">
        <ele>310.3</ele>
        <time>2022-06-22T17:31:09Z</time>
      </trkpt>
      <trkpt lat="49.17839" lon="7.39558">
        <ele>311</ele>
        <time>2022-06-22T17:31:18Z</time>
      </trkpt>
      <trkpt lat="49.17842" lon="7.39549">
        <ele>311.3</ele>
        <time>2022-06-22T17:31:38Z</time>
      </trkpt>
      <trkpt lat="49.17842" lon="7.39549">
        <ele>311.3</ele>
        <time>2022-06-22T17:31:39Z</time>
      </trkpt>
      <trkpt lat="49.17848" lon="7.39538">
        <ele>311.4</ele>
        <time>2022-06-22T17:31:54Z</time>
      </trkpt>
      <trkpt lat="49.17855" lon="7.39532">
        <ele>311.4</ele>
        <time>2022-06-22T17:32:09Z</time>
      </trkpt>
      <trkpt lat="49.17855" lon="7.39532">
        <ele>311.4</ele>
        <time>2022-06-22T17:32:35Z</time>
      </trkpt>
      <trkpt lat="49.17855" lon="7.39532">
        <ele>311.4</ele>
        <time>2022-06-22T17:32:36Z</time>
      </trkpt>
      <trkpt lat="49.17855" lon="7.39532">
        <ele>311.4</ele>
        <time>2022-06-22T17:33:43Z</time>
      </trkpt>
      <trkpt lat="49.17855" lon="7.39532">
        <ele>311.4</ele>
        <time>2022-06-22T17:33:44Z</time>
      </trkpt>
      <trkpt lat="49.17855" lon="7.39532">
        <ele>311.3</ele>
        <time>2022-06-22T17:33:54Z</time>
      </trkpt>
      <trkpt lat="49.17855" lon="7.39532">
        <ele>311.3</ele>
        <time>2022-06-22T17:33:55Z</time>
      </trkpt>
      <trkpt lat="49.17855" lon="7.39531">
        <ele>311.3</ele>
        <time>2022-06-22T17:34:04Z</time>
      </trkpt>
      <trkpt lat="49.17855" lon="7.3953">
        <ele>311.3</ele>
        <time>2022-06-22T17:34:07Z</time>
      </trkpt>
      <trkpt lat="49.17855" lon="7.3953">
        <ele>311.3</ele>
        <time>2022-06-22T17:34:08Z</time>
      </trkpt>
      <trkpt lat="49.17855" lon="7.39529">
        <ele>311.3</ele>
        <time>2022-06-22T17:34:13Z</time>
      </trkpt>
      <trkpt lat="49.17855" lon="7.39529">
        <ele>311.3</ele>
        <time>2022-06-22T17:34:14Z</time>
      </trkpt>
      <trkpt lat="49.17856" lon="7.39529">
        <ele>311.3</ele>
        <time>2022-06-22T17:34:17Z</time>
      </trkpt>
      <trkpt lat="49.17856" lon="7.39529">
        <ele>311.3</ele>
        <time>2022-06-22T17:34:18Z</time>
      </trkpt>
      <trkpt lat="49.17856" lon="7.39529">
        <ele>311.3</ele>
        <time>2022-06-22T17:34:21Z</time>
      </trkpt>
      <trkpt lat="49.17856" lon="7.39529">
        <ele>311.3</ele>
        <time>2022-06-22T17:34:25Z</time>
      </trkpt>
      <trkpt lat="49.17855" lon="7.3953">
        <ele>311.3</ele>
        <time>2022-06-22T17:34:30Z</time>
      </trkpt>
      <trkpt lat="49.17855" lon="7.3953">
        <ele>311.3</ele>
        <time>2022-06-22T17:34:37Z</time>
      </trkpt>
      <trkpt lat="49.17855" lon="7.3953">
        <ele>311.3</ele>
        <time>2022-06-22T17:34:38Z</time>
      </trkpt>
      <trkpt lat="49.17855" lon="7.3953">
        <ele>311.3</ele>
        <time>2022-06-22T17:34:39Z</time>
      </trkpt>
      <trkpt lat="49.17855" lon="7.3953">
        <ele>311.3</ele>
        <time>2022-06-22T17:34:40Z</time>
      </trkpt>
      <trkpt lat="49.17855" lon="7.3953">
        <ele>311.3</ele>
        <time>2022-06-22T17:34:44Z</time>
      </trkpt>
      <trkpt lat="49.17855" lon="7.3953">
        <ele>311.3</ele>
        <time>2022-06-22T17:34:45Z</time>
      </trkpt>
      <trkpt lat="49.17855" lon="7.3953">
        <ele>311.3</ele>
        <time>2022-06-22T17:34:56Z</time>
      </trkpt>
      <trkpt lat="49.17855" lon="7.3953">
        <ele>311.3</ele>
        <time>2022-06-22T17:34:57Z</time>
      </trkpt>
      <trkpt lat="49.17855" lon="7.3953">
        <ele>311.3</ele>
        <time>2022-06-22T17:35:16Z</time>
      </trkpt>
      <trkpt lat="49.17855" lon="7.3953">
        <ele>311.3</ele>
        <time>2022-06-22T17:35:17Z</time>
      </trkpt>
      <trkpt lat="49.17855" lon="7.3953">
        <ele>311.3</ele>
        <time>2022-06-22T17:35:39Z</time>
      </trkpt>
      <trkpt lat="49.17855" lon="7.3953">
        <ele>311.2</ele>
        <time>2022-06-22T17:35:41Z</time>
      </trkpt>
      <trkpt lat="49.17855" lon="7.39531">
        <ele>311.2</ele>
        <time>2022-06-22T17:35:43Z</time>
      </trkpt>
      <trkpt lat="49.17854" lon="7.39516">
        <ele>311.1</ele>
        <time>2022-06-22T17:35:53Z</time>
      </trkpt>
      <trkpt lat="49.17852" lon="7.39503">
        <ele>310.9</ele>
        <time>2022-06-22T17:36:01Z</time>
      </trkpt>
      <trkpt lat="49.17851" lon="7.39488">
        <ele>310.6</ele>
        <time>2022-06-22T17:36:10Z</time>
      </trkpt>
      <trkpt lat="49.17849" lon="7.39472">
        <ele>310.3</ele>
        <time>2022-06-22T17:36:19Z</time>
      </trkpt>
      <trkpt lat="49.17848" lon="7.39458">
        <ele>309.9</ele>
        <time>2022-06-22T17:36:28Z</time>
      </trkpt>
      <trkpt lat="49.17848" lon="7.39443">
        <ele>309.5</ele>
        <time>2022-06-22T17:36:36Z</time>
      </trkpt>
      <trkpt lat="49.17849" lon="7.39429">
        <ele>309.1</ele>
        <time>2022-06-22T17:36:44Z</time>
      </trkpt>
      <trkpt lat="49.17848" lon="7.39414">
        <ele>308.7</ele>
        <time>2022-06-22T17:36:52Z</time>
      </trkpt>
      <trkpt lat="49.17846" lon="7.39399">
        <ele>308.3</ele>
        <time>2022-06-22T17:37:01Z</time>
      </trkpt>
      <trkpt lat="49.17844" lon="7.39385">
        <ele>307.8</ele>
        <time>2022-06-22T17:37:11Z</time>
      </trkpt>
      <trkpt lat="49.17843" lon="7.39369">
        <ele>307.3</ele>
        <time>2022-06-22T17:37:20Z</time>
      </trkpt>
      <trkpt lat="49.1784" lon="7.39354">
        <ele>306.8</ele>
        <time>2022-06-22T17:37:29Z</time>
      </trkpt>
      <trkpt lat="49.17838" lon="7.3934">
        <ele>306.4</ele>
        <time>2022-06-22T17:37:37Z</time>
      </trkpt>
      <trkpt lat="49.17837" lon="7.39327">
        <ele>305.9</ele>
        <time>2022-06-22T17:37:45Z</time>
      </trkpt>
      <trkpt lat="49.17835" lon="7.39312">
        <ele>305.3</ele>
        <time>2022-06-22T17:37:54Z</time>
      </trkpt>
      <trkpt lat="49.17833" lon="7.39298">
        <ele>304.7</ele>
        <time>2022-06-22T17:38:03Z</time>
      </trkpt>
      <trkpt lat="49.17831" lon="7.39283">
        <ele>304.1</ele>
        <time>2022-06-22T17:38:11Z</time>
      </trkpt>
      <trkpt lat="49.17831" lon="7.39283">
        <ele>304.1</ele>
        <time>2022-06-22T17:38:14Z</time>
      </trkpt>
      <trkpt lat="49.17831" lon="7.39283">
        <ele>304.1</ele>
        <time>2022-06-22T17:38:18Z</time>
      </trkpt>
      <trkpt lat="49.17829" lon="7.39268">
        <ele>303.5</ele>
        <time>2022-06-22T17:38:29Z</time>
      </trkpt>
      <trkpt lat="49.17827" lon="7.39254">
        <ele>302.9</ele>
        <time>2022-06-22T17:38:38Z</time>
      </trkpt>
      <trkpt lat="49.17826" lon="7.39239">
        <ele>302.2</ele>
        <time>2022-06-22T17:38:47Z</time>
      </trkpt>
      <trkpt lat="49.17825" lon="7.39225">
        <ele>301.4</ele>
        <time>2022-06-22T17:38:55Z</time>
      </trkpt>
      <trkpt lat="49.17824" lon="7.39211">
        <ele>300.8</ele>
        <time>2022-06-22T17:39:03Z</time>
      </trkpt>
      <trkpt lat="49.17823" lon="7.39197">
        <ele>300.2</ele>
        <time>2022-06-22T17:39:12Z</time>
      </trkpt>
      <trkpt lat="49.17821" lon="7.39183">
        <ele>299.5</ele>
        <time>2022-06-22T17:39:22Z</time>
      </trkpt>
      <trkpt lat="49.17819" lon="7.39169">
        <ele>298.9</ele>
        <time>2022-06-22T17:39:30Z</time>
      </trkpt>
      <trkpt lat="49.17817" lon="7.39155">
        <ele>298.3</ele>
        <time>2022-06-22T17:39:38Z</time>
      </trkpt>
      <trkpt lat="49.17816" lon="7.3914">
        <ele>297.8</ele>
        <time>2022-06-22T17:39:48Z</time>
      </trkpt>
      <trkpt lat="49.17813" lon="7.39127">
        <ele>297.4</ele>
        <time>2022-06-22T17:39:57Z</time>
      </trkpt>
      <trkpt lat="49.17809" lon="7.39113">
        <ele>297.2</ele>
        <time>2022-06-22T17:40:05Z</time>
      </trkpt>
      <trkpt lat="49.17805" lon="7.39105">
        <ele>297.2</ele>
        <time>2022-06-22T17:40:14Z</time>
      </trkpt>
      <trkpt lat="49.17805" lon="7.39105">
        <ele>297.2</ele>
        <time>2022-06-22T17:40:19Z</time>
      </trkpt>
      <trkpt lat="49.17805" lon="7.39105">
        <ele>297.2</ele>
        <time>2022-06-22T17:40:20Z</time>
      </trkpt>
      <trkpt lat="49.17805" lon="7.39105">
        <ele>297.2</ele>
        <time>2022-06-22T17:40:38Z</time>
      </trkpt>
      <trkpt lat="49.17805" lon="7.39105">
        <ele>297.2</ele>
        <time>2022-06-22T17:40:39Z</time>
      </trkpt>
      <trkpt lat="49.17805" lon="7.39105">
        <ele>297.2</ele>
        <time>2022-06-22T17:40:40Z</time>
      </trkpt>
      <trkpt lat="49.17798" lon="7.39096">
        <ele>297.3</ele>
        <time>2022-06-22T17:40:49Z</time>
      </trkpt>
      <trkpt lat="49.1779" lon="7.39088">
        <ele>297.5</ele>
        <time>2022-06-22T17:40:57Z</time>
      </trkpt>
      <trkpt lat="49.17783" lon="7.39077">
        <ele>297.8</ele>
        <time>2022-06-22T17:41:05Z</time>
      </trkpt>
      <trkpt lat="49.17779" lon="7.39065">
        <ele>298.2</ele>
        <time>2022-06-22T17:41:13Z</time>
      </trkpt>
      <trkpt lat="49.17775" lon="7.39051">
        <ele>298.5</ele>
        <time>2022-06-22T17:41:21Z</time>
      </trkpt>
      <trkpt lat="49.17771" lon="7.39037">
        <ele>298.9</ele>
        <time>2022-06-22T17:41:29Z</time>
      </trkpt>
      <trkpt lat="49.17767" lon="7.39023">
        <ele>299.3</ele>
        <time>2022-06-22T17:41:37Z</time>
      </trkpt>
      <trkpt lat="49.17763" lon="7.3901">
        <ele>299.6</ele>
        <time>2022-06-22T17:41:45Z</time>
      </trkpt>
      <trkpt lat="49.1776" lon="7.38996">
        <ele>299.9</ele>
        <time>2022-06-22T17:41:53Z</time>
      </trkpt>
      <trkpt lat="49.17756" lon="7.38983">
        <ele>300.2</ele>
        <time>2022-06-22T17:42:01Z</time>
      </trkpt>
      <trkpt lat="49.17752" lon="7.3897">
        <ele>300.4</ele>
        <time>2022-06-22T17:42:09Z</time>
      </trkpt>
      <trkpt lat="49.17747" lon="7.38957">
        <ele>300.4</ele>
        <time>2022-06-22T17:42:17Z</time>
      </trkpt>
      <trkpt lat="49.17743" lon="7.38944">
        <ele>300.4</ele>
        <time>2022-06-22T17:42:25Z</time>
      </trkpt>
      <trkpt lat="49.17739" lon="7.38931">
        <ele>300.3</ele>
        <time>2022-06-22T17:42:33Z</time>
      </trkpt>
      <trkpt lat="49.17736" lon="7.38917">
        <ele>300.2</ele>
        <time>2022-06-22T17:42:41Z</time>
      </trkpt>
      <trkpt lat="49.17733" lon="7.38902">
        <ele>299.9</ele>
        <time>2022-06-22T17:42:49Z</time>
      </trkpt>
      <trkpt lat="49.17732" lon="7.38888">
        <ele>299.5</ele>
        <time>2022-06-22T17:42:57Z</time>
      </trkpt>
      <trkpt lat="49.17731" lon="7.38874">
        <ele>298.9</ele>
        <time>2022-06-22T17:43:05Z</time>
      </trkpt>
      <trkpt lat="49.1773" lon="7.3886">
        <ele>298.2</ele>
        <time>2022-06-22T17:43:13Z</time>
      </trkpt>
      <trkpt lat="49.17728" lon="7.38845">
        <ele>297.6</ele>
        <time>2022-06-22T17:43:21Z</time>
      </trkpt>
      <trkpt lat="49.17727" lon="7.38831">
        <ele>297.2</ele>
        <time>2022-06-22T17:43:29Z</time>
      </trkpt>
      <trkpt lat="49.17725" lon="7.38816">
        <ele>296.6</ele>
        <time>2022-06-22T17:43:37Z</time>
      </trkpt>
      <trkpt lat="49.17724" lon="7.38802">
        <ele>295.9</ele>
        <time>2022-06-22T17:43:45Z</time>
      </trkpt>
      <trkpt lat="49.17723" lon="7.38788">
        <ele>295.1</ele>
        <time>2022-06-22T17:43:53Z</time>
      </trkpt>
      <trkpt lat="49.17722" lon="7.38773">
        <ele>294.3</ele>
        <time>2022-06-22T17:44:01Z</time>
      </trkpt>
      <trkpt lat="49.1772" lon="7.38758">
        <ele>293.6</ele>
        <time>2022-06-22T17:44:09Z</time>
      </trkpt>
      <trkpt lat="49.17719" lon="7.38743">
        <ele>292.7</ele>
        <time>2022-06-22T17:44:17Z</time>
      </trkpt>
      <trkpt lat="49.17718" lon="7.38728">
        <ele>291.8</ele>
        <time>2022-06-22T17:44:25Z</time>
      </trkpt>
      <trkpt lat="49.17716" lon="7.38712">
        <ele>290.8</ele>
        <time>2022-06-22T17:44:33Z</time>
      </trkpt>
      <trkpt lat="49.17715" lon="7.38698">
        <ele>290</ele>
        <time>2022-06-22T17:44:40Z</time>
      </trkpt>
      <trkpt lat="49.17715" lon="7.38683">
        <ele>289.4</ele>
        <time>2022-06-22T17:44:50Z</time>
      </trkpt>
      <trkpt lat="49.17715" lon="7.38683">
        <ele>289.4</ele>
        <time>2022-06-22T17:44:53Z</time>
      </trkpt>
      <trkpt lat="49.17715" lon="7.38682">
        <ele>289.4</ele>
        <time>2022-06-22T17:44:57Z</time>
      </trkpt>
      <trkpt lat="49.17713" lon="7.38668">
        <ele>288.6</ele>
        <time>2022-06-22T17:45:08Z</time>
      </trkpt>
      <trkpt lat="49.17714" lon="7.38669">
        <ele>288.6</ele>
        <time>2022-06-22T17:45:10Z</time>
      </trkpt>
      <trkpt lat="49.17714" lon="7.38668">
        <ele>288.5</ele>
        <time>2022-06-22T17:45:13Z</time>
      </trkpt>
      <trkpt lat="49.17712" lon="7.38654">
        <ele>287.6</ele>
        <time>2022-06-22T17:45:21Z</time>
      </trkpt>
      <trkpt lat="49.17712" lon="7.38639">
        <ele>286.7</ele>
        <time>2022-06-22T17:45:30Z</time>
      </trkpt>
      <trkpt lat="49.17712" lon="7.38625">
        <ele>285.9</ele>
        <time>2022-06-22T17:45:39Z</time>
      </trkpt>
      <trkpt lat="49.17714" lon="7.38611">
        <ele>284.7</ele>
        <time>2022-06-22T17:45:49Z</time>
      </trkpt>
      <trkpt lat="49.17717" lon="7.38597">
        <ele>283.9</ele>
        <time>2022-06-22T17:45:57Z</time>
      </trkpt>
      <trkpt lat="49.17722" lon="7.38585">
        <ele>283.3</ele>
        <time>2022-06-22T17:46:05Z</time>
      </trkpt>
      <trkpt lat="49.17727" lon="7.38573">
        <ele>282.8</ele>
        <time>2022-06-22T17:46:13Z</time>
      </trkpt>
      <trkpt lat="49.17733" lon="7.38563">
        <ele>282.2</ele>
        <time>2022-06-22T17:46:20Z</time>
      </trkpt>
      <trkpt lat="49.17727" lon="7.38553">
        <ele>282.3</ele>
        <time>2022-06-22T17:46:33Z</time>
      </trkpt>
      <trkpt lat="49.17719" lon="7.38544">
        <ele>282.5</ele>
        <time>2022-06-22T17:46:42Z</time>
      </trkpt>
      <trkpt lat="49.17711" lon="7.38535">
        <ele>283</ele>
        <time>2022-06-22T17:46:50Z</time>
      </trkpt>
      <trkpt lat="49.17703" lon="7.38528">
        <ele>283.5</ele>
        <time>2022-06-22T17:46:57Z</time>
      </trkpt>
      <trkpt lat="49.17696" lon="7.38519">
        <ele>284.3</ele>
        <time>2022-06-22T17:47:05Z</time>
      </trkpt>
      <trkpt lat="49.17688" lon="7.38508">
        <ele>285.7</ele>
        <time>2022-06-22T17:47:13Z</time>
      </trkpt>
      <trkpt lat="49.17683" lon="7.38497">
        <ele>287.1</ele>
        <time>2022-06-22T17:47:21Z</time>
      </trkpt>
      <trkpt lat="49.17677" lon="7.38486">
        <ele>289.3</ele>
        <time>2022-06-22T17:47:29Z</time>
      </trkpt>
      <trkpt lat="49.17672" lon="7.38474">
        <ele>291.1</ele>
        <time>2022-06-22T17:47:37Z</time>
      </trkpt>
      <trkpt lat="49.17668" lon="7.38461">
        <ele>293.7</ele>
        <time>2022-06-22T17:47:45Z</time>
      </trkpt>
      <trkpt lat="49.17665" lon="7.38447">
        <ele>296</ele>
        <time>2022-06-22T17:47:53Z</time>
      </trkpt>
      <trkpt lat="49.17663" lon="7.38433">
        <ele>297.7</ele>
        <time>2022-06-22T17:48:04Z</time>
      </trkpt>
      <trkpt lat="49.17657" lon="7.38421">
        <ele>300.2</ele>
        <time>2022-06-22T17:48:15Z</time>
      </trkpt>
      <trkpt lat="49.17648" lon="7.38416">
        <ele>302.5</ele>
        <time>2022-06-22T17:48:25Z</time>
      </trkpt>
      <trkpt lat="49.17642" lon="7.38424">
        <ele>302.3</ele>
        <time>2022-06-22T17:48:38Z</time>
      </trkpt>
      <trkpt lat="49.17642" lon="7.38424">
        <ele>302.3</ele>
        <time>2022-06-22T17:48:39Z</time>
      </trkpt>
      <trkpt lat="49.17642" lon="7.38424">
        <ele>302.3</ele>
        <time>2022-06-22T17:48:40Z</time>
      </trkpt>
      <trkpt lat="49.17642" lon="7.38424">
        <ele>302.3</ele>
        <time>2022-06-22T17:48:43Z</time>
      </trkpt>
      <trkpt lat="49.17641" lon="7.38424">
        <ele>302.3</ele>
        <time>2022-06-22T17:48:46Z</time>
      </trkpt>
      <trkpt lat="49.17641" lon="7.38424">
        <ele>302.3</ele>
        <time>2022-06-22T17:48:47Z</time>
      </trkpt>
      <trkpt lat="49.17641" lon="7.38425">
        <ele>302.3</ele>
        <time>2022-06-22T17:48:51Z</time>
      </trkpt>
      <trkpt lat="49.17641" lon="7.38426">
        <ele>302.3</ele>
        <time>2022-06-22T17:49:01Z</time>
      </trkpt>
      <trkpt lat="49.17635" lon="7.38435">
        <ele>302.4</ele>
        <time>2022-06-22T17:49:18Z</time>
      </trkpt>
      <trkpt lat="49.17635" lon="7.38435">
        <ele>302.4</ele>
        <time>2022-06-22T17:49:19Z</time>
      </trkpt>
      <trkpt lat="49.17635" lon="7.38436">
        <ele>302</ele>
        <time>2022-06-22T17:49:27Z</time>
      </trkpt>
      <trkpt lat="49.17635" lon="7.38436">
        <ele>302.4</ele>
        <time>2022-06-22T17:49:28Z</time>
      </trkpt>
      <trkpt lat="49.17635" lon="7.38436">
        <ele>302.4</ele>
        <time>2022-06-22T17:49:31Z</time>
      </trkpt>
      <trkpt lat="49.17635" lon="7.38436">
        <ele>302</ele>
        <time>2022-06-22T17:50:36Z</time>
      </trkpt>
      <trkpt lat="49.17635" lon="7.38436">
        <ele>302</ele>
        <time>2022-06-22T17:50:37Z</time>
      </trkpt>
      <trkpt lat="49.17635" lon="7.38436">
        <ele>302</ele>
        <time>2022-06-22T17:50:48Z</time>
      </trkpt>
      <trkpt lat="49.17635" lon="7.38436">
        <ele>302</ele>
        <time>2022-06-22T17:50:49Z</time>
      </trkpt>
      <trkpt lat="49.17636" lon="7.38436">
        <ele>302.4</ele>
        <time>2022-06-22T17:51:14Z</time>
      </trkpt>
      <trkpt lat="49.17637" lon="7.3845">
        <ele>300.7</ele>
        <time>2022-06-22T17:51:23Z</time>
      </trkpt>
      <trkpt lat="49.17639" lon="7.38464">
        <ele>298.7</ele>
        <time>2022-06-22T17:51:30Z</time>
      </trkpt>
      <trkpt lat="49.17642" lon="7.38478">
        <ele>296.6</ele>
        <time>2022-06-22T17:51:38Z</time>
      </trkpt>
      <trkpt lat="49.17646" lon="7.38493">
        <ele>293.6</ele>
        <time>2022-06-22T17:51:47Z</time>
      </trkpt>
      <trkpt lat="49.17649" lon="7.38506">
        <ele>292.9</ele>
        <time>2022-06-22T17:51:54Z</time>
      </trkpt>
      <trkpt lat="49.17652" lon="7.38521">
        <ele>291.3</ele>
        <time>2022-06-22T17:52:02Z</time>
      </trkpt>
      <trkpt lat="49.17657" lon="7.38534">
        <ele>290.5</ele>
        <time>2022-06-22T17:52:10Z</time>
      </trkpt>
      <trkpt lat="49.1766" lon="7.38548">
        <ele>290.1</ele>
        <time>2022-06-22T17:52:18Z</time>
      </trkpt>
      <trkpt lat="49.17662" lon="7.38563">
        <ele>289.8</ele>
        <time>2022-06-22T17:52:26Z</time>
      </trkpt>
      <trkpt lat="49.17662" lon="7.38577">
        <ele>290.2</ele>
        <time>2022-06-22T17:52:34Z</time>
      </trkpt>
      <trkpt lat="49.17662" lon="7.38592">
        <ele>290.9</ele>
        <time>2022-06-22T17:52:42Z</time>
      </trkpt>
      <trkpt lat="49.17664" lon="7.38607">
        <ele>290.8</ele>
        <time>2022-06-22T17:52:50Z</time>
      </trkpt>
      <trkpt lat="49.17665" lon="7.38622">
        <ele>291.5</ele>
        <time>2022-06-22T17:52:58Z</time>
      </trkpt>
      <trkpt lat="49.17666" lon="7.38636">
        <ele>291.9</ele>
        <time>2022-06-22T17:53:06Z</time>
      </trkpt>
      <trkpt lat="49.17668" lon="7.38651">
        <ele>293</ele>
        <time>2022-06-22T17:53:13Z</time>
      </trkpt>
      <trkpt lat="49.1767" lon="7.38665">
        <ele>293</ele>
        <time>2022-06-22T17:53:20Z</time>
      </trkpt>
      <trkpt lat="49.17671" lon="7.38679">
        <ele>292.8</ele>
        <time>2022-06-22T17:53:27Z</time>
      </trkpt>
      <trkpt lat="49.17674" lon="7.38694">
        <ele>293.1</ele>
        <time>2022-06-22T17:53:35Z</time>
      </trkpt>
      <trkpt lat="49.17675" lon="7.38698">
        <ele>293.3</ele>
        <time>2022-06-22T17:53:41Z</time>
      </trkpt>
      <trkpt lat="49.17675" lon="7.38698">
        <ele>293.3</ele>
        <time>2022-06-22T17:53:46Z</time>
      </trkpt>
      <trkpt lat="49.17666" lon="7.38703">
        <ele>294.5</ele>
        <time>2022-06-22T17:53:56Z</time>
      </trkpt>
      <trkpt lat="49.17657" lon="7.38709">
        <ele>295.8</ele>
        <time>2022-06-22T17:54:04Z</time>
      </trkpt>
      <trkpt lat="49.17649" lon="7.38715">
        <ele>297</ele>
        <time>2022-06-22T17:54:12Z</time>
      </trkpt>
      <trkpt lat="49.17641" lon="7.38721">
        <ele>298.5</ele>
        <time>2022-06-22T17:54:20Z</time>
      </trkpt>
      <trkpt lat="49.17631" lon="7.38726">
        <ele>300.4</ele>
        <time>2022-06-22T17:54:29Z</time>
      </trkpt>
      <trkpt lat="49.17623" lon="7.38732">
        <ele>302</ele>
        <time>2022-06-22T17:54:38Z</time>
      </trkpt>
      <trkpt lat="49.17615" lon="7.38737">
        <ele>303.7</ele>
        <time>2022-06-22T17:54:46Z</time>
      </trkpt>
      <trkpt lat="49.17606" lon="7.38742">
        <ele>305.7</ele>
        <time>2022-06-22T17:54:53Z</time>
      </trkpt>
      <trkpt lat="49.17599" lon="7.38753">
        <ele>307</ele>
        <time>2022-06-22T17:55:02Z</time>
      </trkpt>
      <trkpt lat="49.17594" lon="7.38767">
        <ele>308.7</ele>
        <time>2022-06-22T17:55:10Z</time>
      </trkpt>
      <trkpt lat="49.17589" lon="7.38779">
        <ele>310.6</ele>
        <time>2022-06-22T17:55:19Z</time>
      </trkpt>
      <trkpt lat="49.17583" lon="7.38791">
        <ele>313</ele>
        <time>2022-06-22T17:55:29Z</time>
      </trkpt>
      <trkpt lat="49.1758" lon="7.38797">
        <ele>314</ele>
        <time>2022-06-22T17:55:36Z</time>
      </trkpt>
      <trkpt lat="49.1758" lon="7.38798">
        <ele>314</ele>
        <time>2022-06-22T17:55:37Z</time>
      </trkpt>
      <trkpt lat="49.17574" lon="7.38809">
        <ele>315.7</ele>
        <time>2022-06-22T17:55:48Z</time>
      </trkpt>
      <trkpt lat="49.17566" lon="7.38818">
        <ele>317.9</ele>
        <time>2022-06-22T17:55:57Z</time>
      </trkpt>
      <trkpt lat="49.17562" lon="7.38832">
        <ele>320.2</ele>
        <time>2022-06-22T17:56:06Z</time>
      </trkpt>
      <trkpt lat="49.17564" lon="7.38845">
        <ele>320.2</ele>
        <time>2022-06-22T17:56:14Z</time>
      </trkpt>
      <trkpt lat="49.17569" lon="7.38857">
        <ele>319</ele>
        <time>2022-06-22T17:56:22Z</time>
      </trkpt>
      <trkpt lat="49.17573" lon="7.3887">
        <ele>317.6</ele>
        <time>2022-06-22T17:56:30Z</time>
      </trkpt>
      <trkpt lat="49.17577" lon="7.38884">
        <ele>317.4</ele>
        <time>2022-06-22T17:56:38Z</time>
      </trkpt>
      <trkpt lat="49.1758" lon="7.38898">
        <ele>317.6</ele>
        <time>2022-06-22T17:56:46Z</time>
      </trkpt>
      <trkpt lat="49.17584" lon="7.38911">
        <ele>317.7</ele>
        <time>2022-06-22T17:56:54Z</time>
      </trkpt>
      <trkpt lat="49.17587" lon="7.38926">
        <ele>317.6</ele>
        <time>2022-06-22T17:57:02Z</time>
      </trkpt>
      <trkpt lat="49.1759" lon="7.3894">
        <ele>316.4</ele>
        <time>2022-06-22T17:57:10Z</time>
      </trkpt>
      <trkpt lat="49.17593" lon="7.38954">
        <ele>315.7</ele>
        <time>2022-06-22T17:57:18Z</time>
      </trkpt>
      <trkpt lat="49.17596" lon="7.38969">
        <ele>315.8</ele>
        <time>2022-06-22T17:57:26Z</time>
      </trkpt>
      <trkpt lat="49.17599" lon="7.38983">
        <ele>315.9</ele>
        <time>2022-06-22T17:57:34Z</time>
      </trkpt>
      <trkpt lat="49.17601" lon="7.38998">
        <ele>316.5</ele>
        <time>2022-06-22T17:57:42Z</time>
      </trkpt>
      <trkpt lat="49.17604" lon="7.39011">
        <ele>315.5</ele>
        <time>2022-06-22T17:57:49Z</time>
      </trkpt>
      <trkpt lat="49.17608" lon="7.39025">
        <ele>315.4</ele>
        <time>2022-06-22T17:57:56Z</time>
      </trkpt>
      <trkpt lat="49.17609" lon="7.3904">
        <ele>316.2</ele>
        <time>2022-06-22T17:58:04Z</time>
      </trkpt>
      <trkpt lat="49.17611" lon="7.39055">
        <ele>316.6</ele>
        <time>2022-06-22T17:58:12Z</time>
      </trkpt>
      <trkpt lat="49.17614" lon="7.39069">
        <ele>317.2</ele>
        <time>2022-06-22T17:58:19Z</time>
      </trkpt>
      <trkpt lat="49.17616" lon="7.39083">
        <ele>318.3</ele>
        <time>2022-06-22T17:58:26Z</time>
      </trkpt>
      <trkpt lat="49.17619" lon="7.39096">
        <ele>319.5</ele>
        <time>2022-06-22T17:58:33Z</time>
      </trkpt>
      <trkpt lat="49.17622" lon="7.39109">
        <ele>320.6</ele>
        <time>2022-06-22T17:58:40Z</time>
      </trkpt>
      <trkpt lat="49.17625" lon="7.39122">
        <ele>321.3</ele>
        <time>2022-06-22T17:58:47Z</time>
      </trkpt>
      <trkpt lat="49.17628" lon="7.39136">
        <ele>322.1</ele>
        <time>2022-06-22T17:58:54Z</time>
      </trkpt>
      <trkpt lat="49.1762" lon="7.39144">
        <ele>324.3</ele>
        <time>2022-06-22T17:59:05Z</time>
      </trkpt>
      <trkpt lat="49.17611" lon="7.39148">
        <ele>325.8</ele>
        <time>2022-06-22T17:59:13Z</time>
      </trkpt>
      <trkpt lat="49.17601" lon="7.39152">
        <ele>327.3</ele>
        <time>2022-06-22T17:59:22Z</time>
      </trkpt>
      <trkpt lat="49.17592" lon="7.39156">
        <ele>328.4</ele>
        <time>2022-06-22T17:59:31Z</time>
      </trkpt>
      <trkpt lat="49.17591" lon="7.39171">
        <ele>329</ele>
        <time>2022-06-22T17:59:45Z</time>
      </trkpt>
      <trkpt lat="49.17594" lon="7.39186">
        <ele>329.2</ele>
        <time>2022-06-22T17:59:53Z</time>
      </trkpt>
      <trkpt lat="49.17597" lon="7.392">
        <ele>329.7</ele>
        <time>2022-06-22T18:00:01Z</time>
      </trkpt>
      <trkpt lat="49.176" lon="7.39214">
        <ele>329.8</ele>
        <time>2022-06-22T18:00:08Z</time>
      </trkpt>
      <trkpt lat="49.17603" lon="7.39228">
        <ele>329.7</ele>
        <time>2022-06-22T18:00:16Z</time>
      </trkpt>
      <trkpt lat="49.17607" lon="7.39241">
        <ele>329.1</ele>
        <time>2022-06-22T18:00:23Z</time>
      </trkpt>
      <trkpt lat="49.17611" lon="7.39254">
        <ele>328.9</ele>
        <time>2022-06-22T18:00:30Z</time>
      </trkpt>
      <trkpt lat="49.17614" lon="7.39269">
        <ele>328.8</ele>
        <time>2022-06-22T18:00:38Z</time>
      </trkpt>
      <trkpt lat="49.17618" lon="7.39283">
        <ele>328.4</ele>
        <time>2022-06-22T18:00:46Z</time>
      </trkpt>
      <trkpt lat="49.17621" lon="7.39296">
        <ele>328.4</ele>
        <time>2022-06-22T18:00:53Z</time>
      </trkpt>
      <trkpt lat="49.17624" lon="7.39309">
        <ele>328.4</ele>
        <time>2022-06-22T18:01:00Z</time>
      </trkpt>
      <trkpt lat="49.17627" lon="7.39322">
        <ele>328.4</ele>
        <time>2022-06-22T18:01:07Z</time>
      </trkpt>
      <trkpt lat="49.1763" lon="7.39335">
        <ele>328.5</ele>
        <time>2022-06-22T18:01:14Z</time>
      </trkpt>
      <trkpt lat="49.17632" lon="7.39349">
        <ele>328.5</ele>
        <time>2022-06-22T18:01:22Z</time>
      </trkpt>
      <trkpt lat="49.17634" lon="7.39364">
        <ele>328.7</ele>
        <time>2022-06-22T18:01:30Z</time>
      </trkpt>
      <trkpt lat="49.17636" lon="7.39378">
        <ele>328.8</ele>
        <time>2022-06-22T18:01:38Z</time>
      </trkpt>
      <trkpt lat="49.17641" lon="7.39391">
        <ele>328.8</ele>
        <time>2022-06-22T18:01:47Z</time>
      </trkpt>
      <trkpt lat="49.17651" lon="7.39392">
        <ele>328.1</ele>
        <time>2022-06-22T18:01:56Z</time>
      </trkpt>
      <trkpt lat="49.1766" lon="7.39389">
        <ele>327.5</ele>
        <time>2022-06-22T18:02:04Z</time>
      </trkpt>
      <trkpt lat="49.1767" lon="7.39385">
        <ele>326.7</ele>
        <time>2022-06-22T18:02:13Z</time>
      </trkpt>
      <trkpt lat="49.1768" lon="7.39381">
        <ele>325.5</ele>
        <time>2022-06-22T18:02:22Z</time>
      </trkpt>
      <trkpt lat="49.17689" lon="7.39378">
        <ele>324</ele>
        <time>2022-06-22T18:02:30Z</time>
      </trkpt>
      <trkpt lat="49.17698" lon="7.39375">
        <ele>322.3</ele>
        <time>2022-06-22T18:02:43Z</time>
      </trkpt>
      <trkpt lat="49.177" lon="7.39389">
        <ele>323</ele>
        <time>2022-06-22T18:02:54Z</time>
      </trkpt>
      <trkpt lat="49.17702" lon="7.39404">
        <ele>323.6</ele>
        <time>2022-06-22T18:03:02Z</time>
      </trkpt>
      <trkpt lat="49.17704" lon="7.3942">
        <ele>324.6</ele>
        <time>2022-06-22T18:03:10Z</time>
      </trkpt>
      <trkpt lat="49.17706" lon="7.39435">
        <ele>324.6</ele>
        <time>2022-06-22T18:03:18Z</time>
      </trkpt>
      <trkpt lat="49.17707" lon="7.39449">
        <ele>324.8</ele>
        <time>2022-06-22T18:03:26Z</time>
      </trkpt>
      <trkpt lat="49.17709" lon="7.39464">
        <ele>324.9</ele>
        <time>2022-06-22T18:03:34Z</time>
      </trkpt>
      <trkpt lat="49.17711" lon="7.39478">
        <ele>325.2</ele>
        <time>2022-06-22T18:03:42Z</time>
      </trkpt>
      <trkpt lat="49.17714" lon="7.39492">
        <ele>325.2</ele>
        <time>2022-06-22T18:03:54Z</time>
      </trkpt>
      <trkpt lat="49.17716" lon="7.39507">
        <ele>324.6</ele>
        <time>2022-06-22T18:04:03Z</time>
      </trkpt>
      <trkpt lat="49.17717" lon="7.39521">
        <ele>324.2</ele>
        <time>2022-06-22T18:04:12Z</time>
      </trkpt>
      <trkpt lat="49.17719" lon="7.39534">
        <ele>323.4</ele>
        <time>2022-06-22T18:04:20Z</time>
      </trkpt>
      <trkpt lat="49.17721" lon="7.39549">
        <ele>323.2</ele>
        <time>2022-06-22T18:04:29Z</time>
      </trkpt>
      <trkpt lat="49.17722" lon="7.39564">
        <ele>322.6</ele>
        <time>2022-06-22T18:04:38Z</time>
      </trkpt>
      <trkpt lat="49.17724" lon="7.39577">
        <ele>322.5</ele>
        <time>2022-06-22T18:04:46Z</time>
      </trkpt>
      <trkpt lat="49.17727" lon="7.39592">
        <ele>321.3</ele>
        <time>2022-06-22T18:04:55Z</time>
      </trkpt>
      <trkpt lat="49.17732" lon="7.39605">
        <ele>319.9</ele>
        <time>2022-06-22T18:05:03Z</time>
      </trkpt>
      <trkpt lat="49.17724" lon="7.39613">
        <ele>321.1</ele>
        <time>2022-06-22T18:05:11Z</time>
      </trkpt>
      <trkpt lat="49.17715" lon="7.39621">
        <ele>322.2</ele>
        <time>2022-06-22T18:05:19Z</time>
      </trkpt>
      <trkpt lat="49.17707" lon="7.39627">
        <ele>323.6</ele>
        <time>2022-06-22T18:05:26Z</time>
      </trkpt>
      <trkpt lat="49.17698" lon="7.39631">
        <ele>325.2</ele>
        <time>2022-06-22T18:05:34Z</time>
      </trkpt>
      <trkpt lat="49.17696" lon="7.39632">
        <ele>325.6</ele>
        <time>2022-06-22T18:05:39Z</time>
      </trkpt>
      <trkpt lat="49.17695" lon="7.39632">
        <ele>325.7</ele>
        <time>2022-06-22T18:05:40Z</time>
      </trkpt>
      <trkpt lat="49.17685" lon="7.39634">
        <ele>327.4</ele>
        <time>2022-06-22T18:05:51Z</time>
      </trkpt>
      <trkpt lat="49.17675" lon="7.39635">
        <ele>328.9</ele>
        <time>2022-06-22T18:05:58Z</time>
      </trkpt>
      <trkpt lat="49.17665" lon="7.39633">
        <ele>330.1</ele>
        <time>2022-06-22T18:06:06Z</time>
      </trkpt>
      <trkpt lat="49.17657" lon="7.39626">
        <ele>333.6</ele>
        <time>2022-06-22T18:06:15Z</time>
      </trkpt>
      <trkpt lat="49.17653" lon="7.39613">
        <ele>337</ele>
        <time>2022-06-22T18:06:24Z</time>
      </trkpt>
      <trkpt lat="49.17649" lon="7.39607">
        <ele>337.1</ele>
        <time>2022-06-22T18:06:32Z</time>
      </trkpt>
      <trkpt lat="49.1765" lon="7.39606">
        <ele>337.1</ele>
        <time>2022-06-22T18:06:33Z</time>
      </trkpt>
      <trkpt lat="49.1765" lon="7.39606">
        <ele>337.1</ele>
        <time>2022-06-22T18:06:35Z</time>
      </trkpt>
      <trkpt lat="49.1765" lon="7.39607">
        <ele>337.1</ele>
        <time>2022-06-22T18:06:38Z</time>
      </trkpt>
      <trkpt lat="49.17649" lon="7.39607">
        <ele>337.1</ele>
        <time>2022-06-22T18:06:40Z</time>
      </trkpt>
      <trkpt lat="49.1765" lon="7.39607">
        <ele>337.1</ele>
        <time>2022-06-22T18:06:42Z</time>
      </trkpt>
      <trkpt lat="49.1765" lon="7.39607">
        <ele>337.1</ele>
        <time>2022-06-22T18:06:43Z</time>
      </trkpt>
      <trkpt lat="49.1765" lon="7.39606">
        <ele>337.1</ele>
        <time>2022-06-22T18:06:56Z</time>
      </trkpt>
      <trkpt lat="49.17649" lon="7.39591">
        <ele>337.2</ele>
        <time>2022-06-22T18:07:05Z</time>
      </trkpt>
      <trkpt lat="49.17649" lon="7.39577">
        <ele>337.3</ele>
        <time>2022-06-22T18:07:13Z</time>
      </trkpt>
      <trkpt lat="49.17649" lon="7.39562">
        <ele>337.4</ele>
        <time>2022-06-22T18:07:21Z</time>
      </trkpt>
      <trkpt lat="49.17649" lon="7.39547">
        <ele>337.5</ele>
        <time>2022-06-22T18:07:29Z</time>
      </trkpt>
      <trkpt lat="49.17649" lon="7.39532">
        <ele>337.8</ele>
        <time>2022-06-22T18:07:37Z</time>
      </trkpt>
      <trkpt lat="49.17648" lon="7.39517">
        <ele>338.2</ele>
        <time>2022-06-22T18:07:45Z</time>
      </trkpt>
      <trkpt lat="49.17641" lon="7.39507">
        <ele>338.3</ele>
        <time>2022-06-22T18:07:53Z</time>
      </trkpt>
      <trkpt lat="49.17632" lon="7.3951">
        <ele>338.5</ele>
        <time>2022-06-22T18:08:01Z</time>
      </trkpt>
      <trkpt lat="49.17623" lon="7.39515">
        <ele>338.9</ele>
        <time>2022-06-22T18:08:09Z</time>
      </trkpt>
      <trkpt lat="49.17613" lon="7.3952">
        <ele>339.3</ele>
        <time>2022-06-22T18:08:17Z</time>
      </trkpt>
      <trkpt lat="49.17605" lon="7.39525">
        <ele>339.8</ele>
        <time>2022-06-22T18:08:24Z</time>
      </trkpt>
      <trkpt lat="49.17595" lon="7.3953">
        <ele>340.4</ele>
        <time>2022-06-22T18:08:32Z</time>
      </trkpt>
      <trkpt lat="49.17586" lon="7.39534">
        <ele>341</ele>
        <time>2022-06-22T18:08:41Z</time>
      </trkpt>
      <trkpt lat="49.17577" lon="7.39537">
        <ele>341.7</ele>
        <time>2022-06-22T18:08:50Z</time>
      </trkpt>
      <trkpt lat="49.17568" lon="7.39542">
        <ele>342.3</ele>
        <time>2022-06-22T18:08:59Z</time>
      </trkpt>
      <trkpt lat="49.17558" lon="7.39546">
        <ele>343</ele>
        <time>2022-06-22T18:09:08Z</time>
      </trkpt>
      <trkpt lat="49.17549" lon="7.3955">
        <ele>343.4</ele>
        <time>2022-06-22T18:09:16Z</time>
      </trkpt>
      <trkpt lat="49.17539" lon="7.39553">
        <ele>343.9</ele>
        <time>2022-06-22T18:09:24Z</time>
      </trkpt>
      <trkpt lat="49.1753" lon="7.39557">
        <ele>344.3</ele>
        <time>2022-06-22T18:09:32Z</time>
      </trkpt>
      <trkpt lat="49.17521" lon="7.39561">
        <ele>344.6</ele>
        <time>2022-06-22T18:09:40Z</time>
      </trkpt>
      <trkpt lat="49.17512" lon="7.39565">
        <ele>344.8</ele>
        <time>2022-06-22T18:09:48Z</time>
      </trkpt>
      <trkpt lat="49.17503" lon="7.3957">
        <ele>344.9</ele>
        <time>2022-06-22T18:09:55Z</time>
      </trkpt>
      <trkpt lat="49.17493" lon="7.39575">
        <ele>345</ele>
        <time>2022-06-22T18:10:03Z</time>
      </trkpt>
      <trkpt lat="49.17484" lon="7.39578">
        <ele>344.9</ele>
        <time>2022-06-22T18:10:11Z</time>
      </trkpt>
      <trkpt lat="49.17474" lon="7.39582">
        <ele>344.9</ele>
        <time>2022-06-22T18:10:20Z</time>
      </trkpt>
      <trkpt lat="49.17465" lon="7.39586">
        <ele>344.9</ele>
        <time>2022-06-22T18:10:29Z</time>
      </trkpt>
      <trkpt lat="49.17455" lon="7.3959">
        <ele>344.9</ele>
        <time>2022-06-22T18:10:38Z</time>
      </trkpt>
      <trkpt lat="49.17446" lon="7.39595">
        <ele>344.9</ele>
        <time>2022-06-22T18:10:47Z</time>
      </trkpt>
      <trkpt lat="49.17437" lon="7.39598">
        <ele>344.9</ele>
        <time>2022-06-22T18:10:56Z</time>
      </trkpt>
      <trkpt lat="49.17428" lon="7.39601">
        <ele>344.9</ele>
        <time>2022-06-22T18:11:05Z</time>
      </trkpt>
      <trkpt lat="49.17418" lon="7.39603">
        <ele>344.9</ele>
        <time>2022-06-22T18:11:13Z</time>
      </trkpt>
      <trkpt lat="49.17409" lon="7.39606">
        <ele>344.9</ele>
        <time>2022-06-22T18:11:21Z</time>
      </trkpt>
      <trkpt lat="49.17401" lon="7.3961">
        <ele>344.8</ele>
        <time>2022-06-22T18:11:34Z</time>
      </trkpt>
      <trkpt lat="49.17401" lon="7.3961">
        <ele>344.8</ele>
        <time>2022-06-22T18:11:35Z</time>
      </trkpt>
      <trkpt lat="49.17401" lon="7.3961">
        <ele>344.8</ele>
        <time>2022-06-22T18:11:36Z</time>
      </trkpt>
      <trkpt lat="49.17401" lon="7.3961">
        <ele>344.8</ele>
        <time>2022-06-22T18:11:38Z</time>
      </trkpt>
      <trkpt lat="49.17407" lon="7.39621">
        <ele>344.7</ele>
        <time>2022-06-22T18:11:46Z</time>
      </trkpt>
      <trkpt lat="49.17404" lon="7.39635">
        <ele>344.6</ele>
        <time>2022-06-22T18:11:54Z</time>
      </trkpt>
      <trkpt lat="49.17402" lon="7.3965">
        <ele>344.5</ele>
        <time>2022-06-22T18:12:03Z</time>
      </trkpt>
      <trkpt lat="49.17399" lon="7.39663">
        <ele>344.4</ele>
        <time>2022-06-22T18:12:11Z</time>
      </trkpt>
      <trkpt lat="49.17397" lon="7.39677">
        <ele>344.3</ele>
        <time>2022-06-22T18:12:20Z</time>
      </trkpt>
      <trkpt lat="49.17394" lon="7.39691">
        <ele>344.2</ele>
        <time>2022-06-22T18:12:29Z</time>
      </trkpt>
      <trkpt lat="49.17391" lon="7.39705">
        <ele>344.1</ele>
        <time>2022-06-22T18:12:38Z</time>
      </trkpt>
      <trkpt lat="49.17388" lon="7.39719">
        <ele>344</ele>
        <time>2022-06-22T18:12:47Z</time>
      </trkpt>
      <trkpt lat="49.17386" lon="7.39733">
        <ele>343.9</ele>
        <time>2022-06-22T18:12:55Z</time>
      </trkpt>
      <trkpt lat="49.17383" lon="7.39746">
        <ele>343.8</ele>
        <time>2022-06-22T18:13:03Z</time>
      </trkpt>
      <trkpt lat="49.17381" lon="7.3976">
        <ele>343.7</ele>
        <time>2022-06-22T18:13:11Z</time>
      </trkpt>
      <trkpt lat="49.17379" lon="7.39775">
        <ele>343.6</ele>
        <time>2022-06-22T18:13:20Z</time>
      </trkpt>
      <trkpt lat="49.17375" lon="7.39788">
        <ele>343.5</ele>
        <time>2022-06-22T18:13:29Z</time>
      </trkpt>
      <trkpt lat="49.17373" lon="7.39802">
        <ele>343.4</ele>
        <time>2022-06-22T18:13:38Z</time>
      </trkpt>
      <trkpt lat="49.17369" lon="7.39815">
        <ele>343.3</ele>
        <time>2022-06-22T18:13:48Z</time>
      </trkpt>
      <trkpt lat="49.17366" lon="7.3983">
        <ele>343.2</ele>
        <time>2022-06-22T18:13:58Z</time>
      </trkpt>
      <trkpt lat="49.17363" lon="7.39844">
        <ele>343.1</ele>
        <time>2022-06-22T18:14:07Z</time>
      </trkpt>
      <trkpt lat="49.1736" lon="7.39857">
        <ele>343</ele>
        <time>2022-06-22T18:14:15Z</time>
      </trkpt>
      <trkpt lat="49.17357" lon="7.39871">
        <ele>342.9</ele>
        <time>2022-06-22T18:14:23Z</time>
      </trkpt>
      <trkpt lat="49.17355" lon="7.39884">
        <ele>342.8</ele>
        <time>2022-06-22T18:14:31Z</time>
      </trkpt>
      <trkpt lat="49.17353" lon="7.39899">
        <ele>342.7</ele>
        <time>2022-06-22T18:14:40Z</time>
      </trkpt>
      <trkpt lat="49.17354" lon="7.39914">
        <ele>342.8</ele>
        <time>2022-06-22T18:14:48Z</time>
      </trkpt>
      <trkpt lat="49.17361" lon="7.39924">
        <ele>342.7</ele>
        <time>2022-06-22T18:14:57Z</time>
      </trkpt>
      <trkpt lat="49.17368" lon="7.39933">
        <ele>342.7</ele>
        <time>2022-06-22T18:15:06Z</time>
      </trkpt>
      <trkpt lat="49.17375" lon="7.39942">
        <ele>342.7</ele>
        <time>2022-06-22T18:15:15Z</time>
      </trkpt>
      <trkpt lat="49.17382" lon="7.39951">
        <ele>342.7</ele>
        <time>2022-06-22T18:15:24Z</time>
      </trkpt>
      <trkpt lat="49.1739" lon="7.39961">
        <ele>342.7</ele>
        <time>2022-06-22T18:15:33Z</time>
      </trkpt>
      <trkpt lat="49.17397" lon="7.3997">
        <ele>342.6</ele>
        <time>2022-06-22T18:15:42Z</time>
      </trkpt>
      <trkpt lat="49.17405" lon="7.3998">
        <ele>342.6</ele>
        <time>2022-06-22T18:15:52Z</time>
      </trkpt>
      <trkpt lat="49.17412" lon="7.3999">
        <ele>342.5</ele>
        <time>2022-06-22T18:16:01Z</time>
      </trkpt>
      <trkpt lat="49.17419" lon="7.39999">
        <ele>342.4</ele>
        <time>2022-06-22T18:16:09Z</time>
      </trkpt>
      <trkpt lat="49.17426" lon="7.4001">
        <ele>342.3</ele>
        <time>2022-06-22T18:16:18Z</time>
      </trkpt>
      <trkpt lat="49.17432" lon="7.40021">
        <ele>342.3</ele>
        <time>2022-06-22T18:16:27Z</time>
      </trkpt>
      <trkpt lat="49.17437" lon="7.40032">
        <ele>342.4</ele>
        <time>2022-06-22T18:16:35Z</time>
      </trkpt>
      <trkpt lat="49.17442" lon="7.40046">
        <ele>342.4</ele>
        <time>2022-06-22T18:16:44Z</time>
      </trkpt>
      <trkpt lat="49.17447" lon="7.4006">
        <ele>342.2</ele>
        <time>2022-06-22T18:16:53Z</time>
      </trkpt>
      <trkpt lat="49.17451" lon="7.40073">
        <ele>342</ele>
        <time>2022-06-22T18:17:02Z</time>
      </trkpt>
      <trkpt lat="49.17454" lon="7.40087">
        <ele>341.7</ele>
        <time>2022-06-22T18:17:11Z</time>
      </trkpt>
      <trkpt lat="49.17459" lon="7.40101">
        <ele>341.3</ele>
        <time>2022-06-22T18:17:20Z</time>
      </trkpt>
      <trkpt lat="49.17462" lon="7.4011">
        <ele>341.2</ele>
        <time>2022-06-22T18:17:28Z</time>
      </trkpt>
      <trkpt lat="49.17462" lon="7.4011">
        <ele>341.2</ele>
        <time>2022-06-22T18:17:32Z</time>
      </trkpt>
      <trkpt lat="49.17462" lon="7.4011">
        <ele>341.2</ele>
        <time>2022-06-22T18:17:33Z</time>
      </trkpt>
      <trkpt lat="49.17463" lon="7.4011">
        <ele>341.2</ele>
        <time>2022-06-22T18:17:34Z</time>
      </trkpt>
      <trkpt lat="49.17466" lon="7.40124">
        <ele>341</ele>
        <time>2022-06-22T18:17:44Z</time>
      </trkpt>
      <trkpt lat="49.17466" lon="7.40124">
        <ele>341</ele>
        <time>2022-06-22T18:17:47Z</time>
      </trkpt>
      <trkpt lat="49.17466" lon="7.40124">
        <ele>341</ele>
        <time>2022-06-22T18:18:13Z</time>
      </trkpt>
      <trkpt lat="49.1747" lon="7.40137">
        <ele>340.7</ele>
        <time>2022-06-22T18:18:22Z</time>
      </trkpt>
      <trkpt lat="49.17472" lon="7.4015">
        <ele>340.3</ele>
        <time>2022-06-22T18:18:31Z</time>
      </trkpt>
      <trkpt lat="49.17474" lon="7.40164">
        <ele>340</ele>
        <time>2022-06-22T18:18:40Z</time>
      </trkpt>
      <trkpt lat="49.17476" lon="7.40178">
        <ele>339.6</ele>
        <time>2022-06-22T18:18:49Z</time>
      </trkpt>
      <trkpt lat="49.17478" lon="7.40192">
        <ele>339.3</ele>
        <time>2022-06-22T18:18:57Z</time>
      </trkpt>
      <trkpt lat="49.17481" lon="7.40206">
        <ele>339</ele>
        <time>2022-06-22T18:19:06Z</time>
      </trkpt>
      <trkpt lat="49.17484" lon="7.4022">
        <ele>338.6</ele>
        <time>2022-06-22T18:19:15Z</time>
      </trkpt>
      <trkpt lat="49.17488" lon="7.40233">
        <ele>338.5</ele>
        <time>2022-06-22T18:19:24Z</time>
      </trkpt>
      <trkpt lat="49.17491" lon="7.40247">
        <ele>338.3</ele>
        <time>2022-06-22T18:19:33Z</time>
      </trkpt>
      <trkpt lat="49.17493" lon="7.40261">
        <ele>338.2</ele>
        <time>2022-06-22T18:19:42Z</time>
      </trkpt>
      <trkpt lat="49.17496" lon="7.40274">
        <ele>338</ele>
        <time>2022-06-22T18:19:51Z</time>
      </trkpt>
      <trkpt lat="49.175" lon="7.40287">
        <ele>337.8</ele>
        <time>2022-06-22T18:19:59Z</time>
      </trkpt>
      <trkpt lat="49.17504" lon="7.40299">
        <ele>337.6</ele>
        <time>2022-06-22T18:20:07Z</time>
      </trkpt>
      <trkpt lat="49.17508" lon="7.40313">
        <ele>337.5</ele>
        <time>2022-06-22T18:20:16Z</time>
      </trkpt>
      <trkpt lat="49.17513" lon="7.40326">
        <ele>337.5</ele>
        <time>2022-06-22T18:20:25Z</time>
      </trkpt>
      <trkpt lat="49.17517" lon="7.4034">
        <ele>337.4</ele>
        <time>2022-06-22T18:20:34Z</time>
      </trkpt>
      <trkpt lat="49.17521" lon="7.40353">
        <ele>337.3</ele>
        <time>2022-06-22T18:20:43Z</time>
      </trkpt>
      <trkpt lat="49.17525" lon="7.40366">
        <ele>337.2</ele>
        <time>2022-06-22T18:20:52Z</time>
      </trkpt>
      <trkpt lat="49.17529" lon="7.40378">
        <ele>337.1</ele>
        <time>2022-06-22T18:21:00Z</time>
      </trkpt>
      <trkpt lat="49.17533" lon="7.40391">
        <ele>337.2</ele>
        <time>2022-06-22T18:21:09Z</time>
      </trkpt>
      <trkpt lat="49.17537" lon="7.40404">
        <ele>337.2</ele>
        <time>2022-06-22T18:21:18Z</time>
      </trkpt>
      <trkpt lat="49.1754" lon="7.40417">
        <ele>337.2</ele>
        <time>2022-06-22T18:21:27Z</time>
      </trkpt>
      <trkpt lat="49.17544" lon="7.4043">
        <ele>337.1</ele>
        <time>2022-06-22T18:21:37Z</time>
      </trkpt>
      <trkpt lat="49.17544" lon="7.4043">
        <ele>337.1</ele>
        <time>2022-06-22T18:21:39Z</time>
      </trkpt>
      <trkpt lat="49.17544" lon="7.40429">
        <ele>337.1</ele>
        <time>2022-06-22T18:22:26Z</time>
      </trkpt>
      <trkpt lat="49.17544" lon="7.40429">
        <ele>337.1</ele>
        <time>2022-06-22T18:22:27Z</time>
      </trkpt>
      <trkpt lat="49.17544" lon="7.40429">
        <ele>337.1</ele>
        <time>2022-06-22T18:23:05Z</time>
      </trkpt>
      <trkpt lat="49.17544" lon="7.40429">
        <ele>337.1</ele>
        <time>2022-06-22T18:23:06Z</time>
      </trkpt>
      <trkpt lat="49.17544" lon="7.4043">
        <ele>337.1</ele>
        <time>2022-06-22T18:23:35Z</time>
      </trkpt>
      <trkpt lat="49.17544" lon="7.4043">
        <ele>337.1</ele>
        <time>2022-06-22T18:23:36Z</time>
      </trkpt>
      <trkpt lat="49.17544" lon="7.4043">
        <ele>337.1</ele>
        <time>2022-06-22T18:23:37Z</time>
      </trkpt>
      <trkpt lat="49.17544" lon="7.4043">
        <ele>337.1</ele>
        <time>2022-06-22T18:23:39Z</time>
      </trkpt>
      <trkpt lat="49.17545" lon="7.4043">
        <ele>337.1</ele>
        <time>2022-06-22T18:23:40Z</time>
      </trkpt>
      <trkpt lat="49.17545" lon="7.4043">
        <ele>337.1</ele>
        <time>2022-06-22T18:23:41Z</time>
      </trkpt>
      <trkpt lat="49.17545" lon="7.4043">
        <ele>337.1</ele>
        <time>2022-06-22T18:23:42Z</time>
      </trkpt>
      <trkpt lat="49.17545" lon="7.4043">
        <ele>337.1</ele>
        <time>2022-06-22T18:23:43Z</time>
      </trkpt>
      <trkpt lat="49.17545" lon="7.4043">
        <ele>337.1</ele>
        <time>2022-06-22T18:23:49Z</time>
      </trkpt>
      <trkpt lat="49.17545" lon="7.4043">
        <ele>337.1</ele>
        <time>2022-06-22T18:23:50Z</time>
      </trkpt>
      <trkpt lat="49.17545" lon="7.40431">
        <ele>337.1</ele>
        <time>2022-06-22T18:24:04Z</time>
      </trkpt>
      <trkpt lat="49.17542" lon="7.40444">
        <ele>337.1</ele>
        <time>2022-06-22T18:24:15Z</time>
      </trkpt>
      <trkpt lat="49.17539" lon="7.40458">
        <ele>337</ele>
        <time>2022-06-22T18:24:25Z</time>
      </trkpt>
      <trkpt lat="49.17535" lon="7.4047">
        <ele>336.8</ele>
        <time>2022-06-22T18:24:36Z</time>
      </trkpt>
      <trkpt lat="49.17529" lon="7.40482">
        <ele>335.8</ele>
        <time>2022-06-22T18:24:47Z</time>
      </trkpt>
      <trkpt lat="49.17523" lon="7.40494">
        <ele>334.7</ele>
        <time>2022-06-22T18:24:57Z</time>
      </trkpt>
      <trkpt lat="49.17518" lon="7.40506">
        <ele>333.6</ele>
        <time>2022-06-22T18:25:07Z</time>
      </trkpt>
      <trkpt lat="49.17512" lon="7.40518">
        <ele>332.5</ele>
        <time>2022-06-22T18:25:15Z</time>
      </trkpt>
      <trkpt lat="49.17506" lon="7.4053">
        <ele>331.4</ele>
        <time>2022-06-22T18:25:23Z</time>
      </trkpt>
      <trkpt lat="49.175" lon="7.40541">
        <ele>330.3</ele>
        <time>2022-06-22T18:25:31Z</time>
      </trkpt>
      <trkpt lat="49.17493" lon="7.40552">
        <ele>329.2</ele>
        <time>2022-06-22T18:25:39Z</time>
      </trkpt>
      <trkpt lat="49.17487" lon="7.40563">
        <ele>328.1</ele>
        <time>2022-06-22T18:25:47Z</time>
      </trkpt>
      <trkpt lat="49.17479" lon="7.40571">
        <ele>327</ele>
        <time>2022-06-22T18:25:56Z</time>
      </trkpt>
      <trkpt lat="49.17472" lon="7.40582">
        <ele>325.9</ele>
        <time>2022-06-22T18:26:05Z</time>
      </trkpt>
      <trkpt lat="49.17465" lon="7.40592">
        <ele>324.8</ele>
        <time>2022-06-22T18:26:13Z</time>
      </trkpt>
      <trkpt lat="49.17457" lon="7.406">
        <ele>323.6</ele>
        <time>2022-06-22T18:26:22Z</time>
      </trkpt>
      <trkpt lat="49.17448" lon="7.40607">
        <ele>322.5</ele>
        <time>2022-06-22T18:26:30Z</time>
      </trkpt>
      <trkpt lat="49.17441" lon="7.40615">
        <ele>321.5</ele>
        <time>2022-06-22T18:26:38Z</time>
      </trkpt>
      <trkpt lat="49.17432" lon="7.40624">
        <ele>320.3</ele>
        <time>2022-06-22T18:26:48Z</time>
      </trkpt>
      <trkpt lat="49.17425" lon="7.40633">
        <ele>319.2</ele>
        <time>2022-06-22T18:26:56Z</time>
      </trkpt>
      <trkpt lat="49.17417" lon="7.40643">
        <ele>318</ele>
        <time>2022-06-22T18:27:05Z</time>
      </trkpt>
      <trkpt lat="49.17411" lon="7.40656">
        <ele>316.9</ele>
        <time>2022-06-22T18:27:14Z</time>
      </trkpt>
      <trkpt lat="49.17407" lon="7.40669">
        <ele>315.8</ele>
        <time>2022-06-22T18:27:22Z</time>
      </trkpt>
      <trkpt lat="49.17403" lon="7.40682">
        <ele>314.7</ele>
        <time>2022-06-22T18:27:30Z</time>
      </trkpt>
      <trkpt lat="49.174" lon="7.40696">
        <ele>313.6</ele>
        <time>2022-06-22T18:27:39Z</time>
      </trkpt>
      <trkpt lat="49.17396" lon="7.40709">
        <ele>312.6</ele>
        <time>2022-06-22T18:27:47Z</time>
      </trkpt>
      <trkpt lat="49.17392" lon="7.40721">
        <ele>311.5</ele>
        <time>2022-06-22T18:27:55Z</time>
      </trkpt>
      <trkpt lat="49.17386" lon="7.40733">
        <ele>310.4</ele>
        <time>2022-06-22T18:28:03Z</time>
      </trkpt>
      <trkpt lat="49.17379" lon="7.40744">
        <ele>309.3</ele>
        <time>2022-06-22T18:28:11Z</time>
      </trkpt>
      <trkpt lat="49.17371" lon="7.40753">
        <ele>308.6</ele>
        <time>2022-06-22T18:28:20Z</time>
      </trkpt>
      <trkpt lat="49.17364" lon="7.40762">
        <ele>308</ele>
        <time>2022-06-22T18:28:28Z</time>
      </trkpt>
      <trkpt lat="49.17356" lon="7.40769">
        <ele>307.3</ele>
        <time>2022-06-22T18:28:37Z</time>
      </trkpt>
      <trkpt lat="49.17348" lon="7.40777">
        <ele>306.6</ele>
        <time>2022-06-22T18:28:46Z</time>
      </trkpt>
      <trkpt lat="49.1734" lon="7.40784">
        <ele>305.9</ele>
        <time>2022-06-22T18:28:55Z</time>
      </trkpt>
      <trkpt lat="49.17336" lon="7.40788">
        <ele>305.6</ele>
        <time>2022-06-22T18:29:02Z</time>
      </trkpt>
      <trkpt lat="49.17336" lon="7.40788">
        <ele>305.5</ele>
        <time>2022-06-22T18:29:04Z</time>
      </trkpt>
      <trkpt lat="49.17328" lon="7.40797">
        <ele>304.8</ele>
        <time>2022-06-22T18:29:15Z</time>
      </trkpt>
      <trkpt lat="49.17322" lon="7.4081">
        <ele>304.1</ele>
        <time>2022-06-22T18:29:25Z</time>
      </trkpt>
      <trkpt lat="49.17319" lon="7.40824">
        <ele>303.4</ele>
        <time>2022-06-22T18:29:36Z</time>
      </trkpt>
      <trkpt lat="49.17318" lon="7.40839">
        <ele>302.6</ele>
        <time>2022-06-22T18:29:47Z</time>
      </trkpt>
      <trkpt lat="49.17318" lon="7.40844">
        <ele>302.4</ele>
        <time>2022-06-22T18:29:53Z</time>
      </trkpt>
      <trkpt lat="49.17318" lon="7.40844">
        <ele>302.4</ele>
        <time>2022-06-22T18:29:55Z</time>
      </trkpt>
      <trkpt lat="49.17318" lon="7.40858">
        <ele>301.7</ele>
        <time>2022-06-22T18:30:07Z</time>
      </trkpt>
      <trkpt lat="49.17322" lon="7.40871">
        <ele>301</ele>
        <time>2022-06-22T18:30:17Z</time>
      </trkpt>
      <trkpt lat="49.17322" lon="7.40886">
        <ele>300.3</ele>
        <time>2022-06-22T18:30:27Z</time>
      </trkpt>
      <trkpt lat="49.17321" lon="7.40901">
        <ele>299.5</ele>
        <time>2022-06-22T18:30:35Z</time>
      </trkpt>
      <trkpt lat="49.17318" lon="7.40915">
        <ele>298.8</ele>
        <time>2022-06-22T18:30:42Z</time>
      </trkpt>
      <trkpt lat="49.17315" lon="7.4093">
        <ele>298.1</ele>
        <time>2022-06-22T18:30:49Z</time>
      </trkpt>
      <trkpt lat="49.17308" lon="7.40941">
        <ele>297.3</ele>
        <time>2022-06-22T18:30:57Z</time>
      </trkpt>
      <trkpt lat="49.17297" lon="7.40943">
        <ele>296.5</ele>
        <time>2022-06-22T18:31:06Z</time>
      </trkpt>
      <trkpt lat="49.17287" lon="7.40946">
        <ele>295.8</ele>
        <time>2022-06-22T18:31:13Z</time>
      </trkpt>
      <trkpt lat="49.17277" lon="7.40947">
        <ele>295.1</ele>
        <time>2022-06-22T18:31:21Z</time>
      </trkpt>
      <trkpt lat="49.17268" lon="7.40944">
        <ele>294.4</ele>
        <time>2022-06-22T18:31:30Z</time>
      </trkpt>
      <trkpt lat="49.17259" lon="7.4094">
        <ele>293.7</ele>
        <time>2022-06-22T18:31:49Z</time>
      </trkpt>
      <trkpt lat="49.17249" lon="7.40938">
        <ele>292.9</ele>
        <time>2022-06-22T18:31:58Z</time>
      </trkpt>
      <trkpt lat="49.1724" lon="7.40937">
        <ele>292.3</ele>
        <time>2022-06-22T18:32:07Z</time>
      </trkpt>
      <trkpt lat="49.17231" lon="7.40944">
        <ele>291.6</ele>
        <time>2022-06-22T18:32:16Z</time>
      </trkpt>
      <trkpt lat="49.17224" lon="7.40954">
        <ele>290.9</ele>
        <time>2022-06-22T18:32:24Z</time>
      </trkpt>
      <trkpt lat="49.17217" lon="7.40964">
        <ele>290.2</ele>
        <time>2022-06-22T18:32:33Z</time>
      </trkpt>
      <trkpt lat="49.17217" lon="7.40965">
        <ele>290.2</ele>
        <time>2022-06-22T18:32:36Z</time>
      </trkpt>
      <trkpt lat="49.17217" lon="7.40966">
        <ele>290.2</ele>
        <time>2022-06-22T18:32:37Z</time>
      </trkpt>
      <trkpt lat="49.17215" lon="7.40981">
        <ele>289.8</ele>
        <time>2022-06-22T18:32:46Z</time>
      </trkpt>
      <trkpt lat="49.17214" lon="7.40996">
        <ele>289.5</ele>
        <time>2022-06-22T18:32:55Z</time>
      </trkpt>
      <trkpt lat="49.1721" lon="7.4101">
        <ele>289.2</ele>
        <time>2022-06-22T18:33:04Z</time>
      </trkpt>
      <trkpt lat="49.1721" lon="7.41024">
        <ele>288.8</ele>
        <time>2022-06-22T18:33:12Z</time>
      </trkpt>
      <trkpt lat="49.17209" lon="7.4104">
        <ele>288.5</ele>
        <time>2022-06-22T18:33:21Z</time>
      </trkpt>
      <trkpt lat="49.17209" lon="7.41053">
        <ele>288.2</ele>
        <time>2022-06-22T18:33:29Z</time>
      </trkpt>
      <trkpt lat="49.17206" lon="7.41067">
        <ele>287.2</ele>
        <time>2022-06-22T18:33:38Z</time>
      </trkpt>
      <trkpt lat="49.17201" lon="7.41081">
        <ele>285.9</ele>
        <time>2022-06-22T18:33:45Z</time>
      </trkpt>
      <trkpt lat="49.17195" lon="7.41104">
        <ele>284.3</ele>
        <time>2022-06-22T18:33:56Z</time>
      </trkpt>
      <trkpt lat="49.17192" lon="7.41112">
        <ele>283.8</ele>
        <time>2022-06-22T18:34:04Z</time>
      </trkpt>
      <trkpt lat="49.17188" lon="7.41121">
        <ele>283.3</ele>
        <time>2022-06-22T18:34:12Z</time>
      </trkpt>
      <trkpt lat="49.17185" lon="7.41129">
        <ele>282.9</ele>
        <time>2022-06-22T18:34:20Z</time>
      </trkpt>
      <trkpt lat="49.17182" lon="7.41138">
        <ele>282.6</ele>
        <time>2022-06-22T18:34:31Z</time>
      </trkpt>
      <trkpt lat="49.17179" lon="7.41147">
        <ele>282.4</ele>
        <time>2022-06-22T18:34:39Z</time>
      </trkpt>
      <trkpt lat="49.17176" lon="7.41155">
        <ele>282.2</ele>
        <time>2022-06-22T18:34:49Z</time>
      </trkpt>
      <trkpt lat="49.17173" lon="7.41164">
        <ele>282.1</ele>
        <time>2022-06-22T18:34:57Z</time>
      </trkpt>
      <trkpt lat="49.17169" lon="7.41172">
        <ele>281.9</ele>
        <time>2022-06-22T18:34:57Z</time>
      </trkpt>
      <trkpt lat="49.17169" lon="7.41172">
        <ele>281.9</ele>
        <time>2022-06-22T18:34:57Z</time>
      </trkpt>
      <trkpt lat="49.17169" lon="7.41172">
        <ele>281.9</ele>
        <time>2022-06-22T18:34:57Z</time>
      </trkpt>
    </trkseg>
  </trk>
</gpx>